U29816 / G-EZUK 7700 Squawk Report (28th of November, 2021)

Aircraft A320 Reg No. G-EZUK Age 10 years old
Model A320 Jet engines 2 First flight 06-06-11
Registered 27-06-11 Rollout 27-05-11 Delivered 27-06-11
Construction No. 4749 Line No. N/A Series 214
ADSHEX 406544 Airline name easyJet Owner N/A
Airfield based Luton~Beds~G First tracked N/A

Flight history for G-EZUK

Route Flight No Date Playback
Glasgow (GLA) - Bristol (BRS) U2408 2022-01-20 21:08:00
Bristol (BRS) - Glasgow (GLA) U2407 2022-01-20 20:17:00
Edinburgh (EDI) - Bristol (BRS) U2428 2022-01-20 18:31:00
Bristol (BRS) - Edinburgh (EDI) U2427 2022-01-20 17:02:00
Charles De Gaulle (CDG) - Bristol (BRS) U26224 2022-01-16 21:33:00
Bristol (BRS) - Charles De Gaulle (CDG) U26223 2022-01-16 20:31:00
Glasgow (GLA) - Bristol (BRS) U2406 2022-01-16 17:44:00
Bristol (BRS) - Glasgow (GLA) U2405 2022-01-16 15:49:00
Charles De Gaulle (CDG) - Bristol (BRS) U26224 2022-01-14 21:44:00
Bristol (BRS) - Charles De Gaulle (CDG) U26223 2022-01-14 19:48:00
Glasgow (GLA) - Bristol (BRS) U2406 2022-01-14 17:57:00
Bristol (BRS) - Glasgow (GLA) U2405 2022-01-14 16:58:00
Belfast International (BFS) - Bristol (BRS) U2448 2022-01-13 21:48:00
Bristol (BRS) - Belfast International (BFS) U2447 2022-01-13 20:53:00
Keflavik International Airport (KEF) - Bristol (BRS) U26022 2022-01-13 19:21:00
Bristol (BRS) - Keflavik International Airport (KEF) U26021 2022-01-13 14:56:00
Edinburgh (EDI) - Bristol (BRS) U2422 2022-01-12 14:25:00
Bristol (BRS) - Edinburgh (EDI) U2421 2022-01-12 12:44:00
Geneve Cointrin (GVA) - Bristol (BRS) U26156 2022-01-08 16:44:00
Bristol (BRS) - Geneve Cointrin (GVA) U26155 2022-01-08 14:22:00
Time Lat Lon Altitude Heading Speed Vertical Rate
2021-11-28 16:17:33 GMT 51.385197 -2.721176 0 267 2 0
2021-11-28 16:17:30 GMT 51.385197 -2.721157 0 267 2 0
2021-11-28 16:17:20 GMT 51.385208 -2.720928 0 267 4 0
2021-11-28 16:17:09 GMT 51.385254 -2.720601 0 289 7 0
2021-11-28 16:16:59 GMT 51.385174 -2.720280 0 357 3 0
2021-11-28 16:16:50 GMT 51.385059 -2.720267 0 357 3 0
2021-11-28 16:15:46 GMT 51.384224 -2.722160 0 87 17 0
2021-11-28 16:15:37 GMT 51.384178 -2.723292 0 87 20 0
2021-11-28 16:15:30 GMT 51.384144 -2.724312 0 87 18 0
2021-11-28 16:15:20 GMT 51.384098 -2.725574 0 87 17 0
2021-11-28 16:15:10 GMT 51.384045 -2.726784 0 87 17 0
2021-11-28 16:15:00 GMT 51.383999 -2.727966 0 87 17 0
2021-11-28 16:14:50 GMT 51.383953 -2.729225 0 87 17 0
2021-11-28 16:14:40 GMT 51.383919 -2.730389 0 87 15 0
2021-11-28 16:14:30 GMT 51.383869 -2.731361 0 84 13 0
2021-11-28 16:14:23 GMT 51.383846 -2.732029 0 84 14 0
2021-11-28 16:14:20 GMT 51.383835 -2.732348 0 73 14 0
2021-11-28 16:14:15 GMT 51.383720 -2.732831 0 50 15 0
2021-11-28 16:14:06 GMT 51.383186 -2.733421 0 2 15 0
2021-11-28 16:13:58 GMT 51.382694 -2.733402 0 340 14 0
2021-11-28 16:13:49 GMT 51.382290 -2.733016 0 298 13 0
2021-11-28 16:13:38 GMT 51.382183 -2.731819 0 264 22 0
2021-11-28 16:13:28 GMT 51.382278 -2.729511 0 267 41 0
2021-11-28 16:13:19 GMT 51.382381 -2.726799 0 267 46 0
2021-11-28 16:13:09 GMT 51.382545 -2.722721 0 267 65 0
2021-11-28 16:12:57 GMT 51.382824 -2.715759 825 267 107 0
2021-11-28 16:12:44 GMT 51.383240 -2.705161 825 267 118 -384
2021-11-28 16:12:38 GMT 51.383430 -2.700348 900 267 117 -704
2021-11-28 16:12:29 GMT 51.383709 -2.691803 1,000 267 116 -704
2021-11-28 16:12:26 GMT 51.383835 -2.689275 1,025 267 116 -576
2021-11-28 16:12:23 GMT 51.383926 -2.687048 1,050 267 116 -640
2021-11-28 16:12:18 GMT 51.384083 -2.682800 1,100 267 116 -704
2021-11-28 16:12:14 GMT 51.384266 -2.678757 1,175 267 116 -640
2021-11-28 16:12:12 GMT 51.384315 -2.677078 1,175 267 116 -640
2021-11-28 16:12:09 GMT 51.384453 -2.674484 1,225 267 117 -640
2021-11-28 16:12:05 GMT 51.384567 -2.671014 1,250 267 117 -640
2021-11-28 16:12:02 GMT 51.384659 -2.668490 1,300 267 117 -640
2021-11-28 16:12:00 GMT 51.384705 -2.666857 1,325 267 117 -640
2021-11-28 16:11:59 GMT 51.384750 -2.665892 1,325 267 117 -640
2021-11-28 16:11:58 GMT 51.384781 -2.665100 1,325 267 117 -640
2021-11-28 16:11:56 GMT 51.384872 -2.662430 1,375 267 117 -640
2021-11-28 16:11:55 GMT 51.384872 -2.662430 1,375 267 117 -640
2021-11-28 16:11:54 GMT 51.384979 -2.660547 1,400 267 117 -640
2021-11-28 16:11:51 GMT 51.385014 -2.659760 1,400 267 117 -640
2021-11-28 16:11:50 GMT 51.385014 -2.658920 1,400 267 117 -576
2021-11-28 16:11:48 GMT 51.385105 -2.657013 1,425 267 117 -576
2021-11-28 16:11:47 GMT 51.385117 -2.656168 1,450 267 117 -576
2021-11-28 16:11:46 GMT 51.385197 -2.654343 1,450 267 117 -640
2021-11-28 16:11:43 GMT 51.385254 -2.652382 1,525 267 117 -576
2021-11-28 16:11:39 GMT 51.385391 -2.648522 1,525 267 116 -576
2021-11-28 16:11:37 GMT 51.385429 -2.647629 1,525 267 116 -576
2021-11-28 16:11:36 GMT 51.385483 -2.646666 1,550 267 117 -640
2021-11-28 16:11:34 GMT 51.385529 -2.644810 1,575 267 117 -704
2021-11-28 16:11:32 GMT 51.385620 -2.643177 1,600 267 117 -768
2021-11-28 16:11:31 GMT 51.385620 -2.642435 1,600 267 117 -768
2021-11-28 16:11:30 GMT 51.385666 -2.641544 1,625 267 117 -768
2021-11-28 16:11:27 GMT 51.385757 -2.639020 1,650 267 118 -832
2021-11-28 16:11:26 GMT 51.385803 -2.638245 1,675 267 118 -832
2021-11-28 16:11:24 GMT 51.385895 -2.635457 1,700 267 118 -768
2021-11-28 16:11:22 GMT 51.385941 -2.634566 1,725 267 118 -768
2021-11-28 16:11:20 GMT 51.386032 -2.632859 1,775 267 118 -768
2021-11-28 16:11:17 GMT 51.386127 -2.629700 1,800 267 117 -640
2021-11-28 16:11:14 GMT 51.386269 -2.626572 1,850 267 117 -640
2021-11-28 16:11:11 GMT 51.386307 -2.625213 1,850 267 117 -640
2021-11-28 16:11:08 GMT 51.386410 -2.622604 1,875 267 117 -576
2021-11-28 16:11:05 GMT 51.386547 -2.619019 1,950 267 118 -640
2021-11-28 16:11:02 GMT 51.386642 -2.617111 1,950 267 118 -640
2021-11-28 16:11:01 GMT 51.386642 -2.616196 1,950 267 118 -640
2021-11-28 16:10:59 GMT 51.386734 -2.614441 1,975 267 118 -640
2021-11-28 16:10:58 GMT 51.386734 -2.613449 1,975 267 118 -640
2021-11-28 16:10:55 GMT 51.386875 -2.610779 2,025 267 118 -640
2021-11-28 16:10:54 GMT 51.386902 -2.609847 2,025 267 118 -640
2021-11-28 16:10:52 GMT 51.386967 -2.607880 2,050 267 118 -640
2021-11-28 16:10:51 GMT 51.386993 -2.607174 2,050 267 118 -640
2021-11-28 16:10:50 GMT 51.387085 -2.605393 2,075 267 118 -640
2021-11-28 16:10:48 GMT 51.387108 -2.604523 2,100 267 118 -576
2021-11-28 16:10:46 GMT 51.387177 -2.602795 2,100 267 118 -576
2021-11-28 16:10:44 GMT 51.387222 -2.601162 2,125 267 118 -576
2021-11-28 16:10:42 GMT 51.387268 -2.599751 2,150 267 117 -576
2021-11-28 16:10:39 GMT 51.387405 -2.596337 2,175 267 117 -576
2021-11-28 16:10:36 GMT 51.387619 -2.591095 2,225 267 117 -576
2021-11-28 16:10:33 GMT 51.387619 -2.591095 2,250 267 118 -640
2021-11-28 16:10:28 GMT 51.387772 -2.587651 2,300 267 119 -768
2021-11-28 16:10:25 GMT 51.387897 -2.584610 2,350 267 120 -832
2021-11-28 16:10:22 GMT 51.387955 -2.582307 2,350 267 121 -896
2021-11-28 16:10:19 GMT 51.388092 -2.578818 2,425 267 122 -960
2021-11-28 16:10:15 GMT 51.388229 -2.575552 2,500 267 122 -832
2021-11-28 16:10:12 GMT 51.388317 -2.573166 2,525 267 122 -832
2021-11-28 16:10:08 GMT 51.388596 -2.566376 2,575 267 123 -512
2021-11-28 16:10:05 GMT 51.388596 -2.566376 2,600 267 124 -384
2021-11-28 16:10:02 GMT 51.388687 -2.563600 2,625 267 125 -448
2021-11-28 16:09:59 GMT 51.388916 -2.557662 2,650 267 125 -320
2021-11-28 16:09:55 GMT 51.388916 -2.557662 2,675 267 125 -128
2021-11-28 16:09:52 GMT 51.389015 -2.554626 2,675 267 126 64
2021-11-28 16:09:48 GMT 51.389236 -2.547343 2,675 267 126 64
2021-11-28 16:09:45 GMT 51.389236 -2.547343 2,675 267 126 64
2021-11-28 16:09:41 GMT 51.389339 -2.544632 2,675 267 126 0
2021-11-28 16:09:37 GMT 51.389511 -2.540291 2,675 267 127 64
2021-11-28 16:09:32 GMT 51.389694 -2.535318 2,675 267 127 0
2021-11-28 16:09:28 GMT 51.389759 -2.532349 2,675 267 131 -64
2021-11-28 16:09:25 GMT 51.389900 -2.528534 2,675 267 130 -64
2021-11-28 16:09:22 GMT 51.390152 -2.521882 2,700 267 131 -64
2021-11-28 16:09:17 GMT 51.390152 -2.521882 2,700 266 171 256
2021-11-28 16:09:14 GMT 51.390270 -2.518921 2,700 266 171 256
2021-11-28 16:09:11 GMT 51.390427 -2.515869 2,650 266 171 256
2021-11-28 16:09:07 GMT 51.390553 -2.511444 2,650 266 171 256
2021-11-28 16:09:04 GMT 51.390739 -2.504654 2,650 266 171 256
2021-11-28 16:09:01 GMT 51.390739 -2.504654 2,650 266 171 256
2021-11-28 16:08:58 GMT 51.391064 -2.496872 2,650 266 171 256
2021-11-28 16:08:54 GMT 51.391113 -2.496346 2,675 266 174 0
2021-11-28 16:08:51 GMT 51.391296 -2.492338 2,675 266 176 -64
2021-11-28 16:08:47 GMT 51.391571 -2.486919 2,675 269 177 0
2021-11-28 16:08:44 GMT 51.391663 -2.483356 2,675 269 177 0
2021-11-28 16:08:41 GMT 51.391670 -2.479401 2,675 275 177 0
2021-11-28 16:08:37 GMT 51.391438 -2.474899 2,675 282 176 0
2021-11-28 16:08:35 GMT 51.391022 -2.471850 2,675 291 176 -64
2021-11-28 16:08:32 GMT 51.390289 -2.468583 2,675 298 176 -128
2021-11-28 16:08:30 GMT 51.388184 -2.461754 2,700 297 175 -128
2021-11-28 16:08:26 GMT 51.387012 -2.457428 2,700 279 175 -512
2021-11-28 16:08:23 GMT 51.387012 -2.457428 2,725 279 175 -512
2021-11-28 16:08:20 GMT 51.386398 -2.454405 2,725 279 175 -512
2021-11-28 16:08:18 GMT 51.386082 -2.451859 2,725 279 175 -512
2021-11-28 16:08:16 GMT 51.385803 -2.449417 2,725 271 178 -576
2021-11-28 16:08:13 GMT 51.385391 -2.444978 2,875 271 178 -576
2021-11-28 16:08:10 GMT 51.385151 -2.441177 2,875 271 178 -576
2021-11-28 16:08:05 GMT 51.385254 -2.435031 2,875 262 181 -640
2021-11-28 16:08:02 GMT 51.385895 -2.429909 2,900 251 185 -640
2021-11-28 16:07:59 GMT 51.386536 -2.427088 2,925 242 188 -640
2021-11-28 16:07:56 GMT 51.387478 -2.423859 2,950 242 188 -640
2021-11-28 16:07:55 GMT 51.388321 -2.421520 2,975 239 190 -512
2021-11-28 16:07:53 GMT 51.389526 -2.418442 3,000 236 193 -384
2021-11-28 16:07:48 GMT 51.391846 -2.413058 3,000 236 195 -320
2021-11-28 16:07:47 GMT 51.392323 -2.412109 3,025 235 198 -512
2021-11-28 16:07:46 GMT 51.392879 -2.410736 3,025 235 198 -512
2021-11-28 16:07:45 GMT 51.393345 -2.409668 3,025 235 199 -512
2021-11-28 16:07:43 GMT 51.394367 -2.407379 3,050 234 200 -704
2021-11-28 16:07:41 GMT 51.397888 -2.400067 3,125 233 204 -896
2021-11-28 16:07:37 GMT 51.398560 -2.398682 3,225 230 209 -960
2021-11-28 16:07:32 GMT 51.401184 -2.393980 3,225 213 220 -640
2021-11-28 16:07:31 GMT 51.401909 -2.392883 3,225 213 220 -640
2021-11-28 16:07:27 GMT 51.404572 -2.389304 3,275 213 220 -640
2021-11-28 16:07:26 GMT 51.405262 -2.388535 3,275 213 220 -640
2021-11-28 16:07:23 GMT 51.408382 -2.385635 3,400 169 245 -832
2021-11-28 16:07:20 GMT 51.411987 -2.383142 3,400 169 245 -832
2021-11-28 16:07:15 GMT 51.416016 -2.381435 3,425 192 232 -768
2021-11-28 16:07:12 GMT 51.419128 -2.380767 3,450 186 236 -704
2021-11-28 16:07:11 GMT 51.420158 -2.380676 3,450 182 239 -704
2021-11-28 16:07:09 GMT 51.422394 -2.380600 3,475 177 241 -768
2021-11-28 16:07:06 GMT 51.425838 -2.381058 3,600 169 245 -832
2021-11-28 16:07:04 GMT 51.428074 -2.381668 3,550 169 245 -768
2021-11-28 16:07:02 GMT 51.430115 -2.382400 3,575 163 248 -832
2021-11-28 16:07:01 GMT 51.431705 -2.383194 3,600 163 248 -832
2021-11-28 16:06:59 GMT 51.433239 -2.384033 3,650 159 250 -896
2021-11-28 16:06:56 GMT 51.440594 -2.390213 3,725 149 254 -1088
2021-11-28 16:06:53 GMT 51.443527 -2.393906 3,775 143 256 -1088
2021-11-28 16:06:50 GMT 51.443527 -2.393906 3,775 137 259 -1216
2021-11-28 16:06:47 GMT 51.447998 -2.401276 3,900 132 260 -1280
2021-11-28 16:06:44 GMT 51.447998 -2.401276 3,900 128 261 -1344
2021-11-28 16:06:43 GMT 51.448742 -2.402802 3,925 126 261 -1280
2021-11-28 16:06:40 GMT 51.450790 -2.407608 3,975 119 263 -1152
2021-11-28 16:06:39 GMT 51.451488 -2.409439 4,000 117 264 -1152
2021-11-28 16:06:36 GMT 51.453278 -2.415136 4,075 111 264 -1216
2021-11-28 16:06:35 GMT 51.453735 -2.416918 4,100 107 265 -1280
2021-11-28 16:06:33 GMT 51.454376 -2.419815 4,100 105 265 -1344
2021-11-28 16:06:31 GMT 51.455212 -2.424316 4,175 101 264 -1472
2021-11-28 16:06:29 GMT 51.455727 -2.428131 4,225 98 264 -1728
2021-11-28 16:06:28 GMT 51.455933 -2.429983 4,275 92 263 -1920
2021-11-28 16:06:25 GMT 51.456207 -2.435031 4,450 90 263 -1984
2021-11-28 16:06:22 GMT 51.456238 -2.440948 4,450 86 261 -1984
2021-11-28 16:06:21 GMT 51.455887 -2.447427 4,525 80 259 -1920
2021-11-28 16:06:19 GMT 51.455887 -2.447427 4,550 80 259 -1920
2021-11-28 16:06:17 GMT 51.454979 -2.455215 4,700 78 256 -2048
2021-11-28 16:06:15 GMT 51.454979 -2.455215 4,700 78 256 -2048
2021-11-28 16:06:13 GMT 51.454514 -2.458954 4,875 78 255 -2176
2021-11-28 16:06:10 GMT 51.453770 -2.464523 4,875 78 255 -2240
2021-11-28 16:06:09 GMT 51.453583 -2.466125 4,900 78 253 -2368
2021-11-28 16:06:07 GMT 51.453094 -2.469771 4,975 77 252 -1664
2021-11-28 16:06:06 GMT 51.452839 -2.471695 5,025 77 252 -1664
2021-11-28 16:06:04 GMT 51.452362 -2.475264 5,075 77 252 -1664
2021-11-28 16:06:02 GMT 51.451862 -2.478790 5,150 76 251 -1536
2021-11-28 16:06:00 GMT 51.451355 -2.482539 5,200 76 251 -1472
2021-11-28 16:05:58 GMT 51.450760 -2.486325 5,225 74 251 -1344
2021-11-28 16:05:54 GMT 51.449627 -2.492676 5,400 71 251 -1280
2021-11-28 16:05:51 GMT 51.447811 -2.500229 5,475 59 244 -2048
2021-11-28 16:05:47 GMT 51.446693 -2.503662 5,475 59 244 -2048
2021-11-28 16:05:45 GMT 51.445484 -2.506943 5,575 56 241 -2176
2021-11-28 16:05:43 GMT 51.443901 -2.510605 5,650 55 239 -2240
2021-11-28 16:05:41 GMT 51.442596 -2.513657 5,850 54 238 -2176
2021-11-28 16:05:38 GMT 51.440781 -2.517725 5,850 55 234 -2624
2021-11-28 16:05:36 GMT 51.439617 -2.520294 5,925 55 233 -2688
2021-11-28 16:05:33 GMT 51.438034 -2.524033 6,025 55 230 -2816
2021-11-28 16:05:31 GMT 51.436798 -2.526855 6,275 55 230 -2944
2021-11-28 16:05:29 GMT 51.434967 -2.531087 6,275 55 228 -3072
2021-11-28 16:05:27 GMT 51.433750 -2.533951 6,375 55 226 -2624
2021-11-28 16:05:26 GMT 51.433228 -2.535244 6,450 55 226 -2624
2021-11-28 16:05:24 GMT 51.432262 -2.537537 6,500 55 226 -2624
2021-11-28 16:05:22 GMT 51.431030 -2.540440 6,600 55 226 -2304
2021-11-28 16:05:21 GMT 51.429291 -2.544597 6,700 55 226 -2112
2021-11-28 16:05:19 GMT 51.429291 -2.544597 6,700 55 226 -2112
2021-11-28 16:05:18 GMT 51.427551 -2.548605 6,800 55 226 -2176
2021-11-28 16:05:16 GMT 51.427551 -2.548605 6,800 55 226 -2176
2021-11-28 16:05:13 GMT 51.424850 -2.554989 6,950 55 226 -2176
2021-11-28 16:05:11 GMT 51.424850 -2.554989 7,025 55 226 -2176
2021-11-28 16:05:09 GMT 51.423386 -2.558478 7,050 55 226 -2240
2021-11-28 16:05:06 GMT 51.419971 -2.566605 7,225 55 226 -2240
2021-11-28 16:05:03 GMT 51.419971 -2.566605 7,250 55 226 -2368
2021-11-28 16:05:01 GMT 51.418484 -2.570114 7,525 55 226 -2368
2021-11-28 16:04:58 GMT 51.416946 -2.573700 7,525 55 225 -2368
2021-11-28 16:04:55 GMT 51.415272 -2.577667 7,525 56 222 -2176
2021-11-28 16:04:52 GMT 51.413643 -2.581482 7,675 56 222 -2176
2021-11-28 16:04:50 GMT 51.412537 -2.584163 7,775 56 221 -2176
2021-11-28 16:04:47 GMT 51.410801 -2.588348 7,975 57 218 -2112
2021-11-28 16:04:44 GMT 51.409126 -2.592545 7,975 57 218 -2112
2021-11-28 16:04:41 GMT 51.407452 -2.596817 8,125 58 216 -2176
2021-11-28 16:04:40 GMT 51.406952 -2.598192 8,125 59 216 -2176
2021-11-28 16:04:38 GMT 51.405308 -2.602692 8,200 63 216 -1536
2021-11-28 16:04:34 GMT 51.404114 -2.606284 8,300 63 216 -1536
2021-11-28 16:04:33 GMT 51.403610 -2.607843 8,325 64 216 -1600
2021-11-28 16:04:31 GMT 51.402794 -2.610703 8,375 65 216 -1600
2021-11-28 16:04:30 GMT 51.402328 -2.612305 8,425 66 217 -1664
2021-11-28 16:04:29 GMT 51.401917 -2.613781 8,450 67 217 -1600
2021-11-28 16:04:28 GMT 51.400864 -2.617790 8,525 68 217 -1472
2021-11-28 16:04:26 GMT 51.400280 -2.620163 8,550 68 218 -1472
2021-11-28 16:04:25 GMT 51.400280 -2.620163 8,600 68 217 -1408
2021-11-28 16:04:22 GMT 51.399216 -2.624545 8,625 69 217 -1536
2021-11-28 16:04:20 GMT 51.398560 -2.627335 8,675 69 217 -1536
2021-11-28 16:04:18 GMT 51.397766 -2.630463 8,725 69 217 -1536
2021-11-28 16:04:16 GMT 51.397068 -2.633438 8,800 69 216 -1280
2021-11-28 16:04:14 GMT 51.396557 -2.635727 8,800 69 216 -1152
2021-11-28 16:04:13 GMT 51.396183 -2.637253 8,825 69 216 -960
2021-11-28 16:04:12 GMT 51.395535 -2.640076 8,875 69 216 -896
2021-11-28 16:04:10 GMT 51.395206 -2.641602 8,875 69 216 -896
2021-11-28 16:04:09 GMT 51.394787 -2.643204 8,900 69 217 -832
2021-11-28 16:04:08 GMT 51.394089 -2.646255 8,925 69 217 -768
2021-11-28 16:04:06 GMT 51.393723 -2.647854 8,950 69 217 -704
2021-11-28 16:04:05 GMT 51.393391 -2.649231 8,950 69 217 -704
2021-11-28 16:04:02 GMT 51.392368 -2.653809 8,975 69 217 -512
2021-11-28 16:04:01 GMT 51.391983 -2.655351 8,975 69 217 -448
2021-11-28 16:03:59 GMT 51.391342 -2.658157 9,000 69 217 -320
2021-11-28 16:03:58 GMT 51.390976 -2.659731 9,000 69 218 -192
2021-11-28 16:03:56 GMT 51.390320 -2.662659 9,000 69 218 -128
2021-11-28 16:03:55 GMT 51.389923 -2.664259 9,000 69 218 -64
2021-11-28 16:03:54 GMT 51.389465 -2.666263 9,000 69 218 0
2021-11-28 16:03:52 GMT 51.388737 -2.669525 9,000 69 218 0
2021-11-28 16:03:50 GMT 51.388176 -2.671890 9,000 69 218 0
2021-11-28 16:03:49 GMT 51.387806 -2.673416 9,000 69 217 0
2021-11-28 16:03:48 GMT 51.387039 -2.676656 9,000 69 217 0
2021-11-28 16:03:46 GMT 51.386719 -2.678214 9,000 69 217 64
2021-11-28 16:03:45 GMT 51.386269 -2.680054 9,000 69 217 64
2021-11-28 16:03:42 GMT 51.385384 -2.684021 9,000 70 218 128
2021-11-28 16:03:40 GMT 51.384842 -2.686306 9,000 71 218 128
2021-11-28 16:03:37 GMT 51.383568 -2.692719 9,000 76 221 0
2021-11-28 16:03:35 GMT 51.383102 -2.695923 9,000 81 226 -64
2021-11-28 16:03:34 GMT 51.382507 -2.702488 9,000 82 226 -64
2021-11-28 16:03:31 GMT 51.382507 -2.702488 9,000 85 228 -64
2021-11-28 16:03:29 GMT 51.382313 -2.705765 9,000 87 230 0
2021-11-28 16:03:28 GMT 51.382278 -2.707165 9,000 87 231 0
2021-11-28 16:03:24 GMT 51.382095 -2.714217 9,000 88 231 0
2021-11-28 16:03:22 GMT 51.382050 -2.716073 9,000 88 231 0
2021-11-28 16:03:21 GMT 51.382030 -2.717819 9,000 88 231 0
2021-11-28 16:03:19 GMT 51.381939 -2.721252 9,000 87 231 0
2021-11-28 16:03:18 GMT 51.381893 -2.723846 9,000 87 231 0
2021-11-28 16:03:16 GMT 51.381821 -2.727356 9,000 87 231 0
2021-11-28 16:03:14 GMT 51.381706 -2.731018 9,000 87 231 0
2021-11-28 16:03:11 GMT 51.381565 -2.736816 9,000 87 231 0
2021-11-28 16:03:09 GMT 51.381546 -2.738268 9,000 87 231 0
2021-11-28 16:03:07 GMT 51.381409 -2.741831 9,000 87 232 0
2021-11-28 16:03:06 GMT 51.381271 -2.746953 9,000 87 232 0
2021-11-28 16:03:03 GMT 51.381180 -2.749700 9,000 87 232 0
2021-11-28 16:03:01 GMT 51.381100 -2.752380 9,000 87 232 0
2021-11-28 16:02:59 GMT 51.380997 -2.756529 9,000 86 231 0
2021-11-28 16:02:57 GMT 51.380859 -2.760463 9,000 86 231 0
2021-11-28 16:02:55 GMT 51.380634 -2.765503 9,000 86 231 0
2021-11-28 16:02:53 GMT 51.380585 -2.767293 9,000 86 230 0
2021-11-28 16:02:52 GMT 51.380493 -2.769149 9,000 86 230 0
2021-11-28 16:02:50 GMT 51.380356 -2.772675 9,000 85 229 -64
2021-11-28 16:02:49 GMT 51.380264 -2.774353 9,000 85 229 -64
2021-11-28 16:02:46 GMT 51.380077 -2.779083 9,000 85 229 -64
2021-11-28 16:02:44 GMT 51.379890 -2.782288 9,000 85 229 -64
2021-11-28 16:02:42 GMT 51.379715 -2.785628 9,025 84 228 -64
2021-11-28 16:02:40 GMT 51.379566 -2.789078 9,025 84 228 0
2021-11-28 16:02:38 GMT 51.379288 -2.794113 9,025 84 228 0
2021-11-28 16:02:35 GMT 51.378868 -2.801208 9,000 86 229 64
2021-11-28 16:02:32 GMT 51.378868 -2.801208 9,000 86 229 64
2021-11-28 16:02:31 GMT 51.378662 -2.806710 9,000 91 234 0
2021-11-28 16:02:29 GMT 51.378662 -2.806710 9,000 91 234 0
2021-11-28 16:02:27 GMT 51.378635 -2.811203 9,000 93 235 -64
2021-11-28 16:02:24 GMT 51.379120 -2.819181 9,000 98 239 0
2021-11-28 16:02:22 GMT 51.379120 -2.819181 9,000 106 244 0
2021-11-28 16:02:20 GMT 51.379612 -2.822876 9,000 106 244 0
2021-11-28 16:02:17 GMT 51.380630 -2.828311 9,000 113 249 0
2021-11-28 16:02:14 GMT 51.381912 -2.833285 9,000 117 251 0
2021-11-28 16:02:12 GMT 51.382690 -2.835809 9,000 119 252 0
2021-11-28 16:02:11 GMT 51.383789 -2.838852 9,000 123 254 0
2021-11-28 16:02:08 GMT 51.385208 -2.842267 9,000 127 256 0
2021-11-28 16:02:06 GMT 51.386581 -2.845162 9,000 133 257 64
2021-11-28 16:02:04 GMT 51.390739 -2.851868 9,000 137 258 0
2021-11-28 16:02:02 GMT 51.392693 -2.854385 9,000 141 260 0
2021-11-28 16:01:59 GMT 51.392693 -2.854385 9,000 145 261 0
2021-11-28 16:01:58 GMT 51.393768 -2.855555 9,000 147 261 0
2021-11-28 16:01:56 GMT 51.395782 -2.857633 9,000 149 262 0
2021-11-28 16:01:55 GMT 51.396790 -2.858505 9,000 155 264 0
2021-11-28 16:01:54 GMT 51.399033 -2.860231 9,000 157 264 0
2021-11-28 16:01:52 GMT 51.400177 -2.861048 9,000 163 264 0
2021-11-28 16:01:49 GMT 51.403446 -2.862854 9,000 176 263 0
2021-11-28 16:01:47 GMT 51.406998 -2.864091 9,000 176 263 0
2021-11-28 16:01:45 GMT 51.409359 -2.864609 9,000 181 263 0
2021-11-28 16:01:41 GMT 51.413223 -2.864838 9,000 183 262 0
2021-11-28 16:01:39 GMT 51.415741 -2.864611 9,000 194 259 0
2021-11-28 16:01:38 GMT 51.417160 -2.864314 9,000 194 259 0
2021-11-28 16:01:37 GMT 51.418156 -2.864075 9,000 194 259 0
2021-11-28 16:01:36 GMT 51.420227 -2.863423 9,000 200 256 0
2021-11-28 16:01:34 GMT 51.424576 -2.861345 9,000 204 254 64
2021-11-28 16:01:32 GMT 51.424576 -2.861345 9,000 204 254 64
2021-11-28 16:01:30 GMT 51.426727 -2.859860 9,000 211 249 0
2021-11-28 16:01:28 GMT 51.429749 -2.857285 9,000 213 248 0
2021-11-28 16:01:25 GMT 51.430820 -2.856216 9,000 217 245 -64
2021-11-28 16:01:23 GMT 51.432819 -2.854080 9,000 219 244 -64
2021-11-28 16:01:21 GMT 51.434402 -2.852020 9,000 228 237 0
2021-11-28 16:01:19 GMT 51.436707 -2.848577 9,000 228 237 0
2021-11-28 16:01:16 GMT 51.438950 -2.844494 9,000 234 233 0
2021-11-28 16:01:15 GMT 51.439728 -2.843009 9,000 236 231 0
2021-11-28 16:01:13 GMT 51.440964 -2.840189 9,000 237 230 64
2021-11-28 16:01:12 GMT 51.441513 -2.838778 9,000 243 226 0
2021-11-28 16:01:10 GMT 51.442131 -2.837067 9,000 243 226 0
2021-11-28 16:01:09 GMT 51.443024 -2.834324 9,000 246 223 0
2021-11-28 16:01:07 GMT 51.443760 -2.831879 9,000 246 223 0
2021-11-28 16:01:05 GMT 51.444717 -2.828014 9,000 252 218 0
2021-11-28 16:01:03 GMT 51.445065 -2.826385 9,000 254 218 0
2021-11-28 16:01:02 GMT 51.445816 -2.822002 9,000 257 215 0
2021-11-28 16:01:00 GMT 51.446228 -2.818985 9,000 260 213 -64
2021-11-28 16:00:59 GMT 51.446228 -2.818985 9,000 263 211 -64
2021-11-28 16:00:58 GMT 51.446415 -2.817383 9,000 263 211 -64
2021-11-28 16:00:56 GMT 51.446594 -2.815024 9,000 265 210 -64
2021-11-28 16:00:53 GMT 51.446915 -2.809234 9,000 267 209 0
2021-11-28 16:00:51 GMT 51.446972 -2.807770 9,000 267 209 0
2021-11-28 16:00:50 GMT 51.447098 -2.804928 9,000 267 209 0
2021-11-28 16:00:49 GMT 51.447144 -2.803369 9,000 267 209 0
2021-11-28 16:00:48 GMT 51.447159 -2.801895 9,000 267 209 0
2021-11-28 16:00:46 GMT 51.447281 -2.798916 9,000 267 209 0
2021-11-28 16:00:45 GMT 51.447346 -2.797470 9,000 267 209 0
2021-11-28 16:00:43 GMT 51.447464 -2.793942 9,000 267 209 0
2021-11-28 16:00:41 GMT 51.447556 -2.791047 9,000 267 209 0
2021-11-28 16:00:38 GMT 51.447720 -2.786484 9,000 267 209 0
2021-11-28 16:00:36 GMT 51.447811 -2.783585 9,000 267 209 0
2021-11-28 16:00:34 GMT 51.447903 -2.780762 9,000 267 209 0
2021-11-28 16:00:31 GMT 51.448105 -2.775904 9,000 267 209 0
2021-11-28 16:00:29 GMT 51.448196 -2.773009 9,000 267 209 -64
2021-11-28 16:00:27 GMT 51.448288 -2.770559 9,000 267 209 -64
2021-11-28 16:00:25 GMT 51.448463 -2.766418 9,000 267 209 0
2021-11-28 16:00:24 GMT 51.448509 -2.764893 9,000 267 208 0
2021-11-28 16:00:22 GMT 51.448654 -2.761577 9,000 267 208 0
2021-11-28 16:00:20 GMT 51.448746 -2.759127 9,000 267 208 0
2021-11-28 16:00:17 GMT 51.448929 -2.755203 9,000 267 207 0
2021-11-28 16:00:15 GMT 51.449020 -2.752151 9,000 267 207 0
2021-11-28 16:00:12 GMT 51.449249 -2.747176 9,000 267 207 -64
2021-11-28 16:00:09 GMT 51.449387 -2.743019 9,000 267 207 -64
2021-11-28 16:00:07 GMT 51.449524 -2.739975 9,000 267 206 0
2021-11-28 16:00:06 GMT 51.449615 -2.738417 9,000 267 206 0
2021-11-28 16:00:04 GMT 51.449844 -2.731884 9,000 267 206 0
2021-11-28 16:00:02 GMT 51.449844 -2.731884 9,000 267 206 0
2021-11-28 15:59:59 GMT 51.450027 -2.727801 9,000 268 206 0
2021-11-28 15:59:57 GMT 51.450256 -2.719562 9,000 268 206 0
2021-11-28 15:59:54 GMT 51.450256 -2.719562 9,000 269 206 64
2021-11-28 15:59:51 GMT 51.450348 -2.714959 9,000 270 205 64
2021-11-28 15:59:49 GMT 51.450371 -2.711868 9,000 271 204 0
2021-11-28 15:59:47 GMT 51.450348 -2.709540 9,000 275 201 -64
2021-11-28 15:59:45 GMT 51.450165 -2.705829 9,000 277 200 -64
2021-11-28 15:59:44 GMT 51.450073 -2.704344 9,000 280 198 -64
2021-11-28 15:59:43 GMT 51.449951 -2.703094 9,000 281 197 -64
2021-11-28 15:59:41 GMT 51.449661 -2.700261 9,000 284 195 -64
2021-11-28 15:59:39 GMT 51.449249 -2.697440 9,000 284 195 -64
2021-11-28 15:59:38 GMT 51.448975 -2.696104 9,000 290 192 0
2021-11-28 15:59:37 GMT 51.448746 -2.694842 9,000 290 192 0
2021-11-28 15:59:36 GMT 51.447784 -2.690537 9,000 293 190 64
2021-11-28 15:59:34 GMT 51.447784 -2.690537 9,000 293 190 64
2021-11-28 15:59:33 GMT 51.447464 -2.689275 9,000 294 189 64
2021-11-28 15:59:32 GMT 51.446686 -2.686603 9,000 297 188 128
2021-11-28 15:59:30 GMT 51.446461 -2.685928 9,000 300 186 128
2021-11-28 15:59:28 GMT 51.445312 -2.682594 9,000 303 184 64
2021-11-28 15:59:27 GMT 51.444122 -2.679625 9,000 305 183 64
2021-11-28 15:59:25 GMT 51.443016 -2.677307 9,000 307 182 64
2021-11-28 15:59:23 GMT 51.443016 -2.677307 9,000 312 182 0
2021-11-28 15:59:21 GMT 51.442226 -2.675705 9,000 312 182 0
2021-11-28 15:59:19 GMT 51.440781 -2.673167 9,000 316 181 -64
2021-11-28 15:59:18 GMT 51.440186 -2.672202 9,000 318 181 -64
2021-11-28 15:59:16 GMT 51.438904 -2.670272 9,000 320 180 -64
2021-11-28 15:59:14 GMT 51.437714 -2.668638 9,000 322 180 -64
2021-11-28 15:59:12 GMT 51.436127 -2.666702 9,000 326 179 -64
2021-11-28 15:59:10 GMT 51.435196 -2.665634 9,000 328 179 -64
2021-11-28 15:59:08 GMT 51.432587 -2.663116 9,000 332 178 64
2021-11-28 15:59:05 GMT 51.431442 -2.662180 9,000 334 177 128
2021-11-28 15:59:02 GMT 51.429520 -2.660696 9,000 343 174 128
2021-11-28 15:59:00 GMT 51.427734 -2.659508 9,000 343 174 128
2021-11-28 15:58:57 GMT 51.425327 -2.658234 9,000 344 174 128
2021-11-28 15:58:55 GMT 51.424118 -2.657726 8,975 347 174 0
2021-11-28 15:58:54 GMT 51.422287 -2.657058 9,000 349 176 0
2021-11-28 15:58:51 GMT 51.420670 -2.656555 8,975 354 178 64
2021-11-28 15:58:49 GMT 51.419083 -2.656242 8,975 357 179 64
2021-11-28 15:58:47 GMT 51.417847 -2.656093 8,975 0 182 64
2021-11-28 15:58:45 GMT 51.415558 -2.656019 8,975 0 182 64
2021-11-28 15:58:44 GMT 51.414761 -2.656021 8,975 5 184 256
2021-11-28 15:58:41 GMT 51.412354 -2.656316 8,975 5 184 256
2021-11-28 15:58:40 GMT 51.409870 -2.656860 8,975 8 186 384
2021-11-28 15:58:38 GMT 51.409870 -2.656860 8,950 11 187 448
2021-11-28 15:58:36 GMT 51.408150 -2.657394 8,950 14 188 640
2021-11-28 15:58:35 GMT 51.407215 -2.657700 8,925 15 189 704
2021-11-28 15:58:33 GMT 51.405487 -2.658469 8,925 16 189 768
2021-11-28 15:58:32 GMT 51.404663 -2.658914 8,900 18 189 896
2021-11-28 15:58:30 GMT 51.403107 -2.659805 8,850 22 190 1024
2021-11-28 15:58:29 GMT 51.402374 -2.660250 8,850 22 190 1024
2021-11-28 15:58:28 GMT 51.401550 -2.660844 8,825 24 192 1024
2021-11-28 15:58:27 GMT 51.398884 -2.662964 8,800 27 192 1024
2021-11-28 15:58:25 GMT 51.398884 -2.662964 8,775 28 193 1024
2021-11-28 15:58:24 GMT 51.397255 -2.664490 8,750 32 195 960
2021-11-28 15:58:21 GMT 51.396183 -2.665558 8,725 33 196 960
2021-11-28 15:58:20 GMT 51.395416 -2.666486 8,675 39 200 1024
2021-11-28 15:58:18 GMT 51.393856 -2.668381 8,675 43 203 1024
2021-11-28 15:58:16 GMT 51.392395 -2.670420 8,625 43 203 1024
2021-11-28 15:58:14 GMT 51.390270 -2.673950 8,575 48 206 1024
2021-11-28 15:58:10 GMT 51.388969 -2.676392 8,525 53 210 1088
2021-11-28 15:58:08 GMT 51.387817 -2.678957 8,500 56 211 1024
2021-11-28 15:58:06 GMT 51.386780 -2.681580 8,475 61 214 832
2021-11-28 15:58:05 GMT 51.385208 -2.686083 8,425 65 216 960
2021-11-28 15:58:03 GMT 51.385208 -2.686083 8,425 65 216 960
2021-11-28 15:58:01 GMT 51.384361 -2.689209 8,375 68 218 896
2021-11-28 15:57:57 GMT 51.383057 -2.695236 8,325 74 222 896
2021-11-28 15:57:56 GMT 51.382778 -2.696762 8,325 74 222 896
2021-11-28 15:57:54 GMT 51.382324 -2.699964 8,300 79 225 896
2021-11-28 15:57:53 GMT 51.381802 -2.705154 8,250 82 227 960
2021-11-28 15:57:51 GMT 51.381802 -2.705154 8,225 83 228 960
2021-11-28 15:57:49 GMT 51.381592 -2.708427 8,200 85 228 1088
2021-11-28 15:57:48 GMT 51.381500 -2.710060 8,175 85 228 1088
2021-11-28 15:57:47 GMT 51.381428 -2.711716 8,175 86 228 1152
2021-11-28 15:57:45 GMT 51.381317 -2.714959 8,125 86 227 768
2021-11-28 15:57:44 GMT 51.381226 -2.716815 8,125 86 227 768
2021-11-28 15:57:42 GMT 51.381088 -2.720230 8,075 86 227 768
2021-11-28 15:57:40 GMT 51.380821 -2.726822 8,025 86 228 576
2021-11-28 15:57:38 GMT 51.380768 -2.728618 8,000 86 228 512
2021-11-28 15:57:35 GMT 51.380497 -2.735214 8,000 86 228 256
2021-11-28 15:57:33 GMT 51.380497 -2.735214 8,000 86 228 0
2021-11-28 15:57:30 GMT 51.380219 -2.742462 8,000 86 229 -64
2021-11-28 15:57:27 GMT 51.380081 -2.746137 8,000 86 229 -64
2021-11-28 15:57:25 GMT 51.379807 -2.752224 8,000 86 229 -64
2021-11-28 15:57:23 GMT 51.379807 -2.752224 8,000 86 229 0
2021-11-28 15:57:22 GMT 51.379749 -2.754135 8,000 86 229 0
2021-11-28 15:57:20 GMT 51.379623 -2.757271 8,000 86 229 0
2021-11-28 15:57:18 GMT 51.379520 -2.760239 8,000 86 229 64
2021-11-28 15:57:17 GMT 51.379395 -2.763210 8,000 86 229 64
2021-11-28 15:57:15 GMT 51.379257 -2.766773 8,000 86 229 64
2021-11-28 15:57:14 GMT 51.379120 -2.770114 8,000 86 229 64
2021-11-28 15:57:11 GMT 51.379051 -2.771912 8,000 86 229 0
2021-11-28 15:57:10 GMT 51.378960 -2.775269 8,000 86 229 0
2021-11-28 15:57:09 GMT 51.378891 -2.777017 8,000 86 229 0
2021-11-28 15:57:06 GMT 51.378681 -2.782059 8,000 86 229 0
2021-11-28 15:57:04 GMT 51.378571 -2.785331 8,000 86 230 0
2021-11-28 15:57:03 GMT 51.378540 -2.786789 8,000 86 231 0
2021-11-28 15:57:02 GMT 51.378342 -2.791270 8,000 86 231 0
2021-11-28 15:56:59 GMT 51.378342 -2.792160 8,000 86 233 0
2021-11-28 15:56:58 GMT 51.378216 -2.795639 8,000 86 233 0
2021-11-28 15:56:55 GMT 51.378021 -2.800920 8,000 86 233 0
2021-11-28 15:56:52 GMT 51.377842 -2.805939 8,000 86 234 0
2021-11-28 15:56:49 GMT 51.377747 -2.809679 8,000 87 235 -64
2021-11-28 15:56:48 GMT 51.377563 -2.814207 8,000 87 235 -64
2021-11-28 15:56:47 GMT 51.377563 -2.814207 8,000 87 237 0
2021-11-28 15:56:45 GMT 51.377468 -2.818069 8,000 87 237 0
2021-11-28 15:56:43 GMT 51.377380 -2.819923 8,000 87 237 0
2021-11-28 15:56:42 GMT 51.377151 -2.826975 8,000 87 239 0
2021-11-28 15:56:39 GMT 51.377151 -2.826975 8,000 87 241 64
2021-11-28 15:56:37 GMT 51.377060 -2.830835 8,000 87 241 64
2021-11-28 15:56:36 GMT 51.376968 -2.833508 8,000 87 242 64
2021-11-28 15:56:33 GMT 51.376740 -2.841079 8,000 86 244 64
2021-11-28 15:56:32 GMT 51.376740 -2.841079 8,000 86 245 64
2021-11-28 15:56:30 GMT 51.376556 -2.846498 7,975 86 251 -64
2021-11-28 15:56:28 GMT 51.376492 -2.848434 7,975 86 251 -64
2021-11-28 15:56:26 GMT 51.376400 -2.850418 7,975 86 251 -64
2021-11-28 15:56:25 GMT 51.376354 -2.852478 8,000 86 252 -64
2021-11-28 15:56:23 GMT 51.376099 -2.858747 8,000 86 255 -128
2021-11-28 15:56:20 GMT 51.375980 -2.862167 8,000 86 257 -128
2021-11-28 15:56:17 GMT 51.375793 -2.866745 8,000 86 257 -128
2021-11-28 15:56:16 GMT 51.375732 -2.868545 8,000 86 257 -128
2021-11-28 15:56:13 GMT 51.375423 -2.877197 8,050 86 254 -256
2021-11-28 15:56:10 GMT 51.375275 -2.881239 8,050 86 254 -256
2021-11-28 15:56:07 GMT 51.375046 -2.886138 8,050 86 255 -192
2021-11-28 15:56:04 GMT 51.374817 -2.892227 8,075 86 254 -960
2021-11-28 15:56:02 GMT 51.374676 -2.896194 8,075 86 254 -960
2021-11-28 15:55:59 GMT 51.374496 -2.901875 8,100 86 254 -960
2021-11-28 15:55:57 GMT 51.374352 -2.905731 8,225 86 254 -960
2021-11-28 15:55:54 GMT 51.374084 -2.912936 8,225 86 254 -1152
2021-11-28 15:55:50 GMT 51.373840 -2.919464 8,225 86 254 -1536
2021-11-28 15:55:48 GMT 51.373699 -2.922974 8,250 86 254 -1536
2021-11-28 15:55:47 GMT 51.373581 -2.924961 8,300 86 254 -1536
2021-11-28 15:55:45 GMT 51.373444 -2.928525 8,325 86 254 -1536
2021-11-28 15:55:43 GMT 51.373325 -2.932587 8,400 86 254 -1536
2021-11-28 15:55:41 GMT 51.373169 -2.936245 8,575 86 254 -1472
2021-11-28 15:55:38 GMT 51.372955 -2.942734 8,575 86 254 -1280
2021-11-28 15:55:35 GMT 51.372757 -2.947528 8,575 86 254 -1280
2021-11-28 15:55:34 GMT 51.372627 -2.951355 8,625 86 254 -1408
2021-11-28 15:55:30 GMT 51.372444 -2.956772 8,700 86 255 -1408
2021-11-28 15:55:29 GMT 51.372391 -2.958737 8,725 87 254 -1472
2021-11-28 15:55:26 GMT 51.372208 -2.964230 8,825 86 256 -1024
2021-11-28 15:55:24 GMT 51.372070 -2.968063 8,825 87 255 -1280
2021-11-28 15:55:21 GMT 51.371933 -2.973435 8,900 86 256 -960
2021-11-28 15:55:19 GMT 51.371841 -2.976256 8,925 86 256 -960
2021-11-28 15:55:18 GMT 51.371696 -2.979355 8,950 86 257 -896
2021-11-28 15:55:16 GMT 51.371605 -2.982254 8,950 86 257 -896
2021-11-28 15:55:13 GMT 51.371246 -2.992587 9,050 86 259 -1088
2021-11-28 15:55:11 GMT 51.371155 -2.995853 9,100 86 259 -1472
2021-11-28 15:55:09 GMT 51.371155 -2.995853 9,150 86 259 -1472
2021-11-28 15:55:07 GMT 51.371044 -2.999573 9,200 87 259 -1920
2021-11-28 15:55:05 GMT 51.370811 -3.006516 9,250 87 259 -2048
2021-11-28 15:55:01 GMT 51.370674 -3.011246 9,350 87 257 -1792
2021-11-28 15:55:00 GMT 51.370533 -3.015213 9,400 86 257 -1472
2021-11-28 15:54:59 GMT 51.370533 -3.015213 9,400 86 257 -1472
2021-11-28 15:54:58 GMT 51.370396 -3.019562 9,450 86 256 -1344
2021-11-28 15:54:56 GMT 51.370300 -3.021698 9,475 86 256 -1344
2021-11-28 15:54:54 GMT 51.370209 -3.024139 9,500 86 256 -1536
2021-11-28 15:54:53 GMT 51.370113 -3.026962 9,550 86 256 -1536
2021-11-28 15:54:51 GMT 51.369835 -3.033981 9,650 86 255 -1664
2021-11-28 15:54:48 GMT 51.369743 -3.035812 9,675 86 255 -1728
2021-11-28 15:54:47 GMT 51.369511 -3.041458 9,750 86 255 -1472
2021-11-28 15:54:43 GMT 51.369278 -3.047370 9,800 86 255 -1152
2021-11-28 15:54:40 GMT 51.369137 -3.051224 9,875 86 255 -1088
2021-11-28 15:54:38 GMT 51.369003 -3.054199 9,900 86 256 -576
2021-11-28 15:54:37 GMT 51.368774 -3.060435 9,900 86 256 -576
2021-11-28 15:54:35 GMT 51.368774 -3.060435 9,975 85 257 -448
2021-11-28 15:54:32 GMT 51.368530 -3.066025 9,975 85 257 -448
2021-11-28 15:54:30 GMT 51.368347 -3.069992 9,975 86 257 -512
2021-11-28 15:54:27 GMT 51.368134 -3.075058 9,975 86 258 -192
2021-11-28 15:54:25 GMT 51.367996 -3.078622 9,975 86 259 -128
2021-11-28 15:54:23 GMT 51.367813 -3.083075 10,000 86 259 0
2021-11-28 15:54:22 GMT 51.367722 -3.085154 10,000 86 259 0
2021-11-28 15:54:21 GMT 51.367649 -3.086929 10,000 86 259 0
2021-11-28 15:54:19 GMT 51.367508 -3.090820 10,000 86 259 0
2021-11-28 15:54:18 GMT 51.367416 -3.092880 10,000 86 259 -64
2021-11-28 15:54:16 GMT 51.367229 -3.096695 10,000 85 259 -64
2021-11-28 15:54:14 GMT 51.367043 -3.100510 10,000 86 259 64
2021-11-28 15:54:12 GMT 51.366898 -3.104083 10,000 86 259 64
2021-11-28 15:54:11 GMT 51.366806 -3.105939 10,000 86 259 0
2021-11-28 15:54:08 GMT 51.366486 -3.113327 10,000 86 259 -128
2021-11-28 15:54:05 GMT 51.366299 -3.118286 10,000 86 259 -128
2021-11-28 15:54:02 GMT 51.366112 -3.123093 10,000 86 258 128
2021-11-28 15:54:00 GMT 51.365936 -3.126947 10,000 86 258 0
2021-11-28 15:53:58 GMT 51.365799 -3.130955 10,000 86 258 0
2021-11-28 15:53:57 GMT 51.365692 -3.132935 10,000 86 258 0
2021-11-28 15:53:55 GMT 51.365368 -3.141174 10,000 86 258 0
2021-11-28 15:53:53 GMT 51.365368 -3.141174 10,000 86 258 0
2021-11-28 15:53:51 GMT 51.365204 -3.145059 10,000 86 259 0
2021-11-28 15:53:48 GMT 51.364948 -3.153000 10,000 86 258 64
2021-11-28 15:53:44 GMT 51.364746 -3.159015 10,000 86 258 0
2021-11-28 15:53:43 GMT 51.364746 -3.159015 10,000 86 259 64
2021-11-28 15:53:42 GMT 51.364655 -3.160871 10,000 86 259 64
2021-11-28 15:53:40 GMT 51.364529 -3.164597 10,000 86 260 64
2021-11-28 15:53:39 GMT 51.364471 -3.166438 10,000 87 261 -64
2021-11-28 15:53:38 GMT 51.364250 -3.173218 10,000 87 261 -64
2021-11-28 15:53:36 GMT 51.364250 -3.173218 10,000 87 261 -64
2021-11-28 15:53:33 GMT 51.364109 -3.178024 10,000 87 261 -64
2021-11-28 15:53:31 GMT 51.364017 -3.181915 10,000 87 261 -64
2021-11-28 15:53:29 GMT 51.363922 -3.186629 10,000 88 262 -64
2021-11-28 15:53:25 GMT 51.363739 -3.194572 10,000 87 262 128
2021-11-28 15:53:23 GMT 51.363506 -3.203201 10,000 88 263 0
2021-11-28 15:53:21 GMT 51.363506 -3.203201 10,000 88 263 0
2021-11-28 15:53:18 GMT 51.363457 -3.207016 10,000 88 263 0
2021-11-28 15:53:16 GMT 51.363373 -3.210829 10,000 88 263 0
2021-11-28 15:53:14 GMT 51.363274 -3.214569 10,000 88 263 0
2021-11-28 15:53:13 GMT 51.363281 -3.216619 10,000 88 264 0
2021-11-28 15:53:12 GMT 51.363190 -3.220330 10,000 88 264 0
2021-11-28 15:53:09 GMT 51.362991 -3.230362 10,000 88 265 0
2021-11-28 15:53:06 GMT 51.362915 -3.234583 10,000 88 266 -64
2021-11-28 15:53:04 GMT 51.362915 -3.234583 10,000 88 266 -64
2021-11-28 15:53:02 GMT 51.362823 -3.239705 10,000 87 265 0
2021-11-28 15:53:00 GMT 51.362759 -3.242188 10,000 87 265 -64
2021-11-28 15:52:58 GMT 51.362480 -3.253326 10,000 87 264 0
2021-11-28 15:52:55 GMT 51.362293 -3.259125 10,000 86 263 0
2021-11-28 15:52:53 GMT 51.362293 -3.259125 10,000 86 263 0
2021-11-28 15:52:49 GMT 51.362156 -3.263016 10,000 86 262 0
2021-11-28 15:52:47 GMT 51.361908 -3.267765 10,000 77 256 0
2021-11-28 15:52:45 GMT 51.361645 -3.272095 10,000 77 256 0
2021-11-28 15:52:43 GMT 51.361362 -3.275299 10,000 77 256 0
2021-11-28 15:52:41 GMT 51.359921 -3.284454 10,000 66 247 0
2021-11-28 15:52:38 GMT 51.359921 -3.284454 10,000 66 247 0
2021-11-28 15:52:36 GMT 51.359081 -3.288040 10,000 66 247 0
2021-11-28 15:52:34 GMT 51.358109 -3.291445 10,000 63 244 64
2021-11-28 15:52:32 GMT 51.357010 -3.294785 10,000 53 236 0
2021-11-28 15:52:30 GMT 51.355499 -3.298645 10,000 53 236 0
2021-11-28 15:52:28 GMT 51.354630 -3.300501 10,000 50 234 0
2021-11-28 15:52:25 GMT 51.352287 -3.304977 10,000 46 232 0
2021-11-28 15:52:23 GMT 51.350704 -3.307495 10,000 39 227 0
2021-11-28 15:52:20 GMT 51.348980 -3.309937 10,000 32 222 0
2021-11-28 15:52:19 GMT 51.348221 -3.310968 10,000 32 222 0
2021-11-28 15:52:17 GMT 51.346527 -3.312898 10,000 32 222 0
2021-11-28 15:52:15 GMT 51.344463 -3.314972 10,000 27 219 0
2021-11-28 15:52:14 GMT 51.343163 -3.316116 10,000 24 217 0
2021-11-28 15:52:12 GMT 51.341812 -3.317203 10,000 24 217 0
2021-11-28 15:52:11 GMT 51.340485 -3.318168 10,000 14 212 0
2021-11-28 15:52:09 GMT 51.338924 -3.319092 10,000 14 212 0
2021-11-28 15:52:08 GMT 51.337555 -3.319875 10,000 14 212 0
2021-11-28 15:52:06 GMT 51.335678 -3.320766 10,000 12 212 0
2021-11-28 15:52:04 GMT 51.333897 -3.321381 10,000 9 211 0
2021-11-28 15:52:03 GMT 51.332920 -3.321686 10,000 8 210 0
2021-11-28 15:52:00 GMT 51.330219 -3.322296 10,000 6 210 -64
2021-11-28 15:51:59 GMT 51.326706 -3.322622 10,000 1 208 0
2021-11-28 15:51:57 GMT 51.326706 -3.322622 10,000 1 208 0
2021-11-28 15:51:54 GMT 51.324326 -3.322696 10,000 0 208 0
2021-11-28 15:51:52 GMT 51.322819 -3.322754 10,000 0 208 0
2021-11-28 15:51:49 GMT 51.320305 -3.322754 10,000 0 208 0
2021-11-28 15:51:48 GMT 51.319279 -3.322830 10,000 0 208 0
2021-11-28 15:51:47 GMT 51.318211 -3.322830 10,000 0 208 0
2021-11-28 15:51:45 GMT 51.316132 -3.322845 10,000 0 208 0
2021-11-28 15:51:43 GMT 51.311783 -3.322919 10,000 0 208 0
2021-11-28 15:51:40 GMT 51.311783 -3.322919 10,000 0 207 0
2021-11-28 15:51:37 GMT 51.308109 -3.322983 10,000 0 207 0
2021-11-28 15:51:34 GMT 51.305267 -3.323059 10,000 0 206 0
2021-11-28 15:51:33 GMT 51.302444 -3.323142 10,000 0 206 0
2021-11-28 15:51:31 GMT 51.302444 -3.323142 10,000 0 206 0
2021-11-28 15:51:29 GMT 51.301117 -3.323142 10,000 0 206 0
2021-11-28 15:51:28 GMT 51.300194 -3.323135 10,000 0 206 0
2021-11-28 15:51:27 GMT 51.299103 -3.323216 10,000 0 206 0
2021-11-28 15:51:25 GMT 51.296658 -3.323212 10,000 0 206 0
2021-11-28 15:51:22 GMT 51.293907 -3.323288 10,000 1 206 0
2021-11-28 15:51:20 GMT 51.289581 -3.323438 10,000 1 206 0
2021-11-28 15:51:18 GMT 51.289581 -3.323438 10,000 1 206 64
2021-11-28 15:51:15 GMT 51.287704 -3.323513 10,000 1 206 64
2021-11-28 15:51:13 GMT 51.285324 -3.323587 10,000 1 206 0
2021-11-28 15:51:11 GMT 51.283855 -3.323593 10,000 1 206 0
2021-11-28 15:51:10 GMT 51.282875 -3.323593 10,000 1 206 0
2021-11-28 15:51:07 GMT 51.280151 -3.323735 10,000 1 206 0
2021-11-28 15:51:05 GMT 51.277756 -3.323746 10,000 1 206 0
2021-11-28 15:51:03 GMT 51.275940 -3.323822 10,000 1 207 0
2021-11-28 15:51:01 GMT 51.273891 -3.323898 10,000 1 207 0
2021-11-28 15:51:00 GMT 51.272919 -3.323884 10,000 1 207 0
2021-11-28 15:50:59 GMT 51.271889 -3.323975 10,000 1 207 0
2021-11-28 15:50:57 GMT 51.269329 -3.324051 10,000 1 207 0
2021-11-28 15:50:55 GMT 51.268112 -3.324032 10,000 1 207 0
2021-11-28 15:50:53 GMT 51.265640 -3.324107 10,000 1 207 0
2021-11-28 15:50:51 GMT 51.264771 -3.324181 10,000 1 207 0
2021-11-28 15:50:50 GMT 51.263229 -3.324203 10,000 1 207 0
2021-11-28 15:50:48 GMT 51.261337 -3.324255 10,000 1 207 0
2021-11-28 15:50:46 GMT 51.259827 -3.324329 10,000 1 207 0
2021-11-28 15:50:43 GMT 51.254154 -3.324432 10,000 1 207 0
2021-11-28 15:50:40 GMT 51.253235 -3.324478 10,000 1 206 0
2021-11-28 15:50:38 GMT 51.251827 -3.324509 10,000 1 206 0
2021-11-28 15:50:36 GMT 51.250057 -3.324585 10,000 0 206 0
2021-11-28 15:50:34 GMT 51.248055 -3.324661 10,000 0 206 0
2021-11-28 15:50:32 GMT 51.246517 -3.324661 10,000 0 206 -64
2021-11-28 15:50:31 GMT 51.245132 -3.324700 10,000 0 206 0
2021-11-28 15:50:28 GMT 51.242661 -3.324775 10,000 0 206 0
2021-11-28 15:50:26 GMT 51.240791 -3.324814 10,000 0 206 0
2021-11-28 15:50:24 GMT 51.238724 -3.324849 10,000 0 206 0
2021-11-28 15:50:22 GMT 51.235794 -3.324923 10,000 0 206 0
2021-11-28 15:50:19 GMT 51.233578 -3.324966 10,000 0 206 0
2021-11-28 15:50:17 GMT 51.231720 -3.324997 10,000 0 206 0
2021-11-28 15:50:16 GMT 51.230785 -3.325043 10,000 0 205 0
2021-11-28 15:50:14 GMT 51.228882 -3.325072 10,000 0 205 0
2021-11-28 15:50:13 GMT 51.227757 -3.325119 10,000 0 205 0
2021-11-28 15:50:11 GMT 51.225758 -3.325119 10,000 0 205 0
2021-11-28 15:50:09 GMT 51.224453 -3.325195 10,000 1 205 0
2021-11-28 15:50:07 GMT 51.222198 -3.325220 10,000 1 205 0
2021-11-28 15:50:06 GMT 51.221333 -3.325272 10,000 1 206 0
2021-11-28 15:50:05 GMT 51.219425 -3.325348 10,000 1 206 0
2021-11-28 15:50:03 GMT 51.218536 -3.325369 10,000 1 206 0
2021-11-28 15:50:02 GMT 51.217518 -3.325348 10,000 1 206 0
2021-11-28 15:50:00 GMT 51.215889 -3.325424 10,000 1 206 0
2021-11-28 15:49:59 GMT 51.215050 -3.325424 10,000 1 206 0
2021-11-28 15:49:57 GMT 51.213142 -3.325500 10,000 1 206 0
2021-11-28 15:49:55 GMT 51.211395 -3.325591 10,000 1 206 0
2021-11-28 15:49:54 GMT 51.210434 -3.325591 10,000 1 206 0
2021-11-28 15:49:53 GMT 51.209198 -3.325591 10,000 1 206 0
2021-11-28 15:49:51 GMT 51.207230 -3.325653 10,000 1 206 0
2021-11-28 15:49:49 GMT 51.205765 -3.325740 10,000 1 206 0
2021-11-28 15:49:48 GMT 51.204857 -3.325729 10,000 1 207 0
2021-11-28 15:49:47 GMT 51.203876 -3.325806 10,000 1 207 0
2021-11-28 15:49:45 GMT 51.201874 -3.325806 10,000 1 207 0
2021-11-28 15:49:44 GMT 51.200409 -3.325888 10,000 1 207 0
2021-11-28 15:49:42 GMT 51.198429 -3.325958 10,000 1 207 0
2021-11-28 15:49:40 GMT 51.196335 -3.325958 10,000 0 207 0
2021-11-28 15:49:37 GMT 51.193775 -3.326035 10,000 0 207 0
2021-11-28 15:49:35 GMT 51.190842 -3.326111 10,000 0 207 0
2021-11-28 15:49:33 GMT 51.189957 -3.326111 10,000 0 207 0
2021-11-28 15:49:31 GMT 51.185806 -3.326259 10,000 0 207 0
2021-11-28 15:49:29 GMT 51.185806 -3.326259 10,000 0 206 0
2021-11-28 15:49:26 GMT 51.182922 -3.326334 10,000 1 206 0
2021-11-28 15:49:24 GMT 51.181503 -3.326334 10,000 1 206 0
2021-11-28 15:49:22 GMT 51.179668 -3.326416 10,000 1 206 0
2021-11-28 15:49:19 GMT 51.175781 -3.326556 10,000 1 206 0
2021-11-28 15:49:16 GMT 51.174362 -3.326556 10,000 1 206 0
2021-11-28 15:49:14 GMT 51.172501 -3.326645 10,000 1 206 0
2021-11-28 15:49:13 GMT 51.171249 -3.326705 10,000 1 205 0
2021-11-28 15:49:10 GMT 51.168732 -3.326797 10,000 1 205 0
2021-11-28 15:49:09 GMT 51.167286 -3.326797 10,000 1 205 0
2021-11-28 15:49:07 GMT 51.164886 -3.326927 10,000 1 205 0
2021-11-28 15:49:05 GMT 51.163891 -3.326950 10,000 1 205 0
2021-11-28 15:49:03 GMT 51.162048 -3.327002 10,000 1 206 0
2021-11-28 15:49:02 GMT 51.161049 -3.327026 10,000 1 206 0
2021-11-28 15:49:00 GMT 51.158340 -3.327150 10,000 1 206 0
2021-11-28 15:48:58 GMT 51.156418 -3.327150 10,000 1 206 0
2021-11-28 15:48:57 GMT 51.155502 -3.327224 10,000 1 208 0
2021-11-28 15:48:54 GMT 51.153648 -3.327255 10,000 1 208 0
2021-11-28 15:48:52 GMT 51.150669 -3.327408 10,000 1 208 0
2021-11-28 15:48:49 GMT 51.148155 -3.327484 10,000 1 209 0
2021-11-28 15:48:47 GMT 51.145874 -3.327560 10,000 1 211 0
2021-11-28 15:48:44 GMT 51.143730 -3.327560 10,000 1 211 0
2021-11-28 15:48:43 GMT 51.140396 -3.327670 10,000 1 211 0
2021-11-28 15:48:41 GMT 51.140396 -3.327670 10,000 1 212 0
2021-11-28 15:48:39 GMT 51.138470 -3.327789 10,000 1 212 0
2021-11-28 15:48:37 GMT 51.136871 -3.327818 10,000 1 213 -64
2021-11-28 15:48:34 GMT 51.133350 -3.327942 10,000 1 215 -64
2021-11-28 15:48:32 GMT 51.131489 -3.328018 10,000 1 215 -64
2021-11-28 15:48:31 GMT 51.128696 -3.328094 10,000 1 217 0
2021-11-28 15:48:29 GMT 51.128696 -3.328094 10,000 1 217 0
2021-11-28 15:48:27 GMT 51.126694 -3.328171 10,000 1 217 0
2021-11-28 15:48:26 GMT 51.125519 -3.328189 10,000 1 219 0
2021-11-28 15:48:25 GMT 51.124603 -3.328264 10,000 1 222 0
2021-11-28 15:48:23 GMT 51.122410 -3.328323 10,000 1 222 0
2021-11-28 15:48:22 GMT 51.120361 -3.328400 10,000 1 225 64
2021-11-28 15:48:20 GMT 51.119339 -3.328476 10,000 1 225 64
2021-11-28 15:48:19 GMT 51.117874 -3.328486 10,000 1 225 64
2021-11-28 15:48:17 GMT 51.115101 -3.328629 10,000 1 229 64
2021-11-28 15:48:14 GMT 51.113426 -3.328629 10,000 0 230 64
2021-11-28 15:48:13 GMT 51.110779 -3.328709 9,975 0 233 64
2021-11-28 15:48:11 GMT 51.109886 -3.328705 9,975 0 234 64
2021-11-28 15:48:10 GMT 51.108765 -3.328709 9,975 0 235 0
2021-11-28 15:48:09 GMT 51.105560 -3.328705 9,975 359 236 0
2021-11-28 15:48:07 GMT 51.105560 -3.328705 9,975 359 236 0
2021-11-28 15:48:06 GMT 51.104416 -3.328635 9,975 358 237 0
2021-11-28 15:48:04 GMT 51.101990 -3.328412 10,000 356 237 -64
2021-11-28 15:48:03 GMT 51.100948 -3.328247 10,000 351 237 0
2021-11-28 15:48:01 GMT 51.098763 -3.327789 10,000 351 237 0
2021-11-28 15:47:59 GMT 51.097321 -3.327447 10,000 351 237 0
2021-11-28 15:47:57 GMT 51.092617 -3.325958 10,000 348 237 0
2021-11-28 15:47:54 GMT 51.091454 -3.325577 10,000 347 237 0
2021-11-28 15:47:53 GMT 51.090244 -3.325119 10,000 347 237 0
2021-11-28 15:47:52 GMT 51.089127 -3.324700 10,000 347 238 0
2021-11-28 15:47:50 GMT 51.085510 -3.323290 10,000 347 238 0
2021-11-28 15:47:48 GMT 51.084473 -3.322906 10,000 347 238 0
2021-11-28 15:47:46 GMT 51.082947 -3.322325 10,000 347 238 0
2021-11-28 15:47:45 GMT 51.082005 -3.321991 10,000 347 238 0
2021-11-28 15:47:44 GMT 51.080475 -3.321434 10,000 347 239 0
2021-11-28 15:47:42 GMT 51.078232 -3.320543 10,000 347 239 0
2021-11-28 15:47:40 GMT 51.076649 -3.319931 10,000 347 239 0
2021-11-28 15:47:38 GMT 51.074509 -3.319168 10,000 347 239 0
2021-11-28 15:47:36 GMT 51.072132 -3.318253 10,000 347 239 0
2021-11-28 15:47:34 GMT 51.070503 -3.317642 10,000 347 239 0
2021-11-28 15:47:33 GMT 51.068848 -3.316980 10,000 347 239 0
2021-11-28 15:47:30 GMT 51.065990 -3.315964 10,000 347 239 0
2021-11-28 15:47:26 GMT 51.061432 -3.314234 10,000 347 239 0
2021-11-28 15:47:23 GMT 51.058121 -3.312988 10,000 347 239 64
2021-11-28 15:47:22 GMT 51.056992 -3.312526 10,000 347 239 64
2021-11-28 15:47:19 GMT 51.053604 -3.311234 10,000 347 239 64
2021-11-28 15:47:17 GMT 51.051956 -3.310596 10,000 347 240 64
2021-11-28 15:47:15 GMT 51.049835 -3.309784 10,000 347 240 0
2021-11-28 15:47:14 GMT 51.048798 -3.309409 10,000 347 240 64
2021-11-28 15:47:12 GMT 51.046719 -3.308563 10,000 347 241 0
2021-11-28 15:47:11 GMT 51.043224 -3.307266 10,000 347 241 0
2021-11-28 15:47:08 GMT 51.042206 -3.306885 10,000 347 241 0
2021-11-28 15:47:07 GMT 51.040558 -3.306217 10,000 347 242 0
2021-11-28 15:47:05 GMT 51.038589 -3.305474 10,000 347 242 -64
2021-11-28 15:47:04 GMT 51.037399 -3.305029 10,000 347 243 -64
2021-11-28 15:47:03 GMT 51.035172 -3.304214 10,000 347 243 -64
2021-11-28 15:47:00 GMT 51.032913 -3.303322 10,000 347 245 -64
2021-11-28 15:46:59 GMT 51.030098 -3.302231 10,000 347 245 -64
2021-11-28 15:46:56 GMT 51.029121 -3.301849 10,000 347 245 -64
2021-11-28 15:46:55 GMT 51.028004 -3.301468 10,000 347 246 -64
2021-11-28 15:46:54 GMT 51.025814 -3.300629 10,000 347 247 0
2021-11-28 15:46:52 GMT 51.024139 -3.299942 10,000 347 248 0
2021-11-28 15:46:50 GMT 51.021927 -3.299165 10,000 347 250 0
2021-11-28 15:46:48 GMT 51.019226 -3.298125 10,000 347 253 64
2021-11-28 15:46:47 GMT 51.016365 -3.297043 10,000 347 253 64
2021-11-28 15:46:45 GMT 51.016365 -3.297043 10,000 347 254 64
2021-11-28 15:46:43 GMT 51.013943 -3.296127 10,000 347 257 64
2021-11-28 15:46:41 GMT 51.011524 -3.295212 10,000 347 258 64
2021-11-28 15:46:38 GMT 51.005657 -3.292923 9,975 347 263 64
2021-11-28 15:46:36 GMT 51.005657 -3.292923 9,975 347 265 64
2021-11-28 15:46:35 GMT 51.003342 -3.292038 9,975 347 267 64
2021-11-28 15:46:33 GMT 51.002014 -3.291519 9,975 347 268 64
2021-11-28 15:46:32 GMT 51.000862 -3.291092 9,975 347 271 64
2021-11-28 15:46:30 GMT 50.998302 -3.290100 9,975 347 272 64
2021-11-28 15:46:29 GMT 50.997162 -3.289663 9,975 347 275 64
2021-11-28 15:46:27 GMT 50.994625 -3.288727 9,975 347 279 0
2021-11-28 15:46:26 GMT 50.993229 -3.288193 9,975 347 279 0
2021-11-28 15:46:24 GMT 50.990936 -3.287288 9,975 347 280 0
2021-11-28 15:46:23 GMT 50.989738 -3.286819 9,975 347 282 0
2021-11-28 15:46:22 GMT 50.988434 -3.286285 9,975 346 284 -64
2021-11-28 15:46:21 GMT 50.987316 -3.285828 9,975 347 285 -64
2021-11-28 15:46:18 GMT 50.983292 -3.284244 10,000 346 286 -128
2021-11-28 15:46:16 GMT 50.980682 -3.283205 10,000 346 287 -64
2021-11-28 15:46:15 GMT 50.979355 -3.282623 10,000 346 287 -64
2021-11-28 15:46:14 GMT 50.978191 -3.282166 10,000 346 288 -64
2021-11-28 15:46:12 GMT 50.975491 -3.281097 10,000 346 288 -64
2021-11-28 15:46:10 GMT 50.972992 -3.280087 10,000 346 287 -64
2021-11-28 15:46:08 GMT 50.970837 -3.279190 10,000 346 287 -64
2021-11-28 15:46:06 GMT 50.968231 -3.278083 10,025 346 287 -64
2021-11-28 15:46:04 GMT 50.963974 -3.276301 10,025 345 287 -64
2021-11-28 15:46:00 GMT 50.960175 -3.274689 10,025 345 287 -128
2021-11-28 15:45:59 GMT 50.958847 -3.274074 10,025 345 287 -128
2021-11-28 15:45:57 GMT 50.957428 -3.273480 10,025 345 287 -128
2021-11-28 15:45:55 GMT 50.954086 -3.271996 10,025 345 287 -128
2021-11-28 15:45:53 GMT 50.952164 -3.271179 10,025 345 288 -128
2021-11-28 15:45:51 GMT 50.948540 -3.269577 10,050 345 288 -256
2021-11-28 15:45:49 GMT 50.945976 -3.268433 10,050 345 289 -384
2021-11-28 15:45:48 GMT 50.944748 -3.267839 10,050 345 289 -448
2021-11-28 15:45:47 GMT 50.943508 -3.267288 10,050 345 290 -448
2021-11-28 15:45:45 GMT 50.939301 -3.265463 10,075 345 294 -832
2021-11-28 15:45:42 GMT 50.936829 -3.264350 10,100 345 294 -832
2021-11-28 15:45:40 GMT 50.934311 -3.263236 10,125 345 296 -1024
2021-11-28 15:45:39 GMT 50.933083 -3.262711 10,125 345 297 -1152
2021-11-28 15:45:37 GMT 50.930569 -3.261642 10,150 345 298 -1152
2021-11-28 15:45:35 GMT 50.928009 -3.260498 10,200 346 304 -1728
2021-11-28 15:45:33 GMT 50.925217 -3.259354 10,250 346 304 -1728
2021-11-28 15:45:32 GMT 50.923866 -3.258743 10,275 346 304 -1728
2021-11-28 15:45:29 GMT 50.919708 -3.257075 10,375 346 305 -1856
2021-11-28 15:45:28 GMT 50.916824 -3.255887 10,425 347 307 -2048
2021-11-28 15:45:26 GMT 50.915394 -3.255310 10,450 347 308 -2240
2021-11-28 15:45:25 GMT 50.913998 -3.254776 10,500 347 308 -2240
2021-11-28 15:45:23 GMT 50.911743 -3.253883 10,575 347 308 -2432
2021-11-28 15:45:22 GMT 50.910370 -3.253364 10,600 347 308 -2560
2021-11-28 15:45:20 GMT 50.907303 -3.252176 10,700 346 309 -2816
2021-11-28 15:45:18 GMT 50.905151 -3.251266 10,775 346 309 -2880
2021-11-28 15:45:17 GMT 50.900940 -3.249652 10,925 347 308 -3264
2021-11-28 15:45:15 GMT 50.900940 -3.249652 10,925 347 308 -3264
2021-11-28 15:45:13 GMT 50.897236 -3.248215 11,075 347 307 -3776
2021-11-28 15:45:09 GMT 50.892303 -3.246231 11,300 347 306 -4096
2021-11-28 15:45:06 GMT 50.884251 -3.243027 12,025 346 299 -5632
2021-11-28 15:45:03 GMT 50.884251 -3.243027 11,875 346 299 -5632
2021-11-28 15:45:00 GMT 50.880058 -3.241425 12,225 346 298 -5440
2021-11-28 15:44:57 GMT 50.876198 -3.239899 12,325 346 299 -4992
2021-11-28 15:44:54 GMT 50.872101 -3.238220 12,600 346 299 -4288
2021-11-28 15:44:52 GMT 50.869354 -3.237152 12,725 346 300 -3904
2021-11-28 15:44:50 GMT 50.866653 -3.236084 13,000 346 303 -3072
2021-11-28 15:44:47 GMT 50.862671 -3.234509 13,000 346 304 -2816
2021-11-28 15:44:44 GMT 50.858688 -3.232950 13,150 346 309 -2496
2021-11-28 15:44:41 GMT 50.849709 -3.229370 13,325 346 312 -3008
2021-11-28 15:44:38 GMT 50.849709 -3.229370 13,400 346 314 -3456
2021-11-28 15:44:36 GMT 50.846729 -3.228149 14,075 347 315 -5504
2021-11-28 15:44:33 GMT 50.842300 -3.226417 13,775 347 316 -4736
2021-11-28 15:44:30 GMT 50.838867 -3.225081 13,875 347 316 -5248
2021-11-28 15:44:27 GMT 50.833237 -3.222928 14,400 347 310 -6656
2021-11-28 15:44:24 GMT 50.829575 -3.221518 14,800 347 308 -7040
2021-11-28 15:44:21 GMT 50.826645 -3.220405 14,950 347 305 -7168
2021-11-28 15:44:19 GMT 50.823212 -3.219068 15,250 347 305 -7168
2021-11-28 15:44:16 GMT 50.819092 -3.217435 15,625 346 302 -6528
2021-11-28 15:44:13 GMT 50.815212 -3.215942 15,900 346 302 -6528
2021-11-28 15:44:10 GMT 50.811905 -3.214614 16,175 346 300 -6336
2021-11-28 15:44:08 GMT 50.809162 -3.213501 16,500 346 300 -4864
2021-11-28 15:44:06 GMT 50.803619 -3.211274 16,800 346 300 -4544
2021-11-28 15:44:04 GMT 50.799618 -3.209686 17,425 346 300 -4992
2021-11-28 15:44:02 GMT 50.799618 -3.209686 17,125 346 300 -4608
2021-11-28 15:43:59 GMT 50.795929 -3.208231 17,275 347 310 -4480
2021-11-28 15:43:56 GMT 50.792542 -3.206969 17,500 347 302 -4416
2021-11-28 15:43:53 GMT 50.788742 -3.205484 17,675 347 303 -4416
2021-11-28 15:43:50 GMT 50.783230 -3.203278 18,000 346 305 -4352
2021-11-28 15:43:47 GMT 50.780273 -3.202143 18,150 347 306 -4352
2021-11-28 15:43:45 GMT 50.776249 -3.200531 18,300 347 307 -4288
2021-11-28 15:43:42 GMT 50.773682 -3.199545 18,425 347 308 -4352
2021-11-28 15:43:40 GMT 50.770935 -3.198432 18,525 346 309 -4352
2021-11-28 15:43:38 GMT 50.768280 -3.197393 18,725 347 310 -4608
2021-11-28 15:43:36 GMT 50.765308 -3.196259 19,050 347 311 -4672
2021-11-28 15:43:33 GMT 50.761120 -3.194580 19,175 347 311 -5184
2021-11-28 15:43:31 GMT 50.757706 -3.193236 19,350 347 311 -5440
2021-11-28 15:43:28 GMT 50.754501 -3.191974 19,650 347 310 -6080
2021-11-28 15:43:26 GMT 50.750412 -3.190384 20,025 347 308 -6400
2021-11-28 15:43:22 GMT 50.742599 -3.187371 20,175 347 307 -6336
2021-11-28 15:43:20 GMT 50.742599 -3.187371 20,450 347 307 -5760
2021-11-28 15:43:18 GMT 50.736969 -3.185144 20,700 347 307 -5376
2021-11-28 15:43:16 GMT 50.736969 -3.185144 20,725 346 308 -4672
2021-11-28 15:43:13 GMT 50.733143 -3.183594 21,100 346 309 -4224
2021-11-28 15:43:11 GMT 50.726067 -3.180847 21,375 346 313 -3904
2021-11-28 15:43:08 GMT 50.726067 -3.180847 21,375 346 313 -3904
2021-11-28 15:43:05 GMT 50.722366 -3.179354 21,550 347 314 -3968
2021-11-28 15:43:02 GMT 50.718521 -3.177870 21,950 347 317 -4544
2021-11-28 15:43:00 GMT 50.711494 -3.175125 22,100 346 316 -4480
2021-11-28 15:42:58 GMT 50.711494 -3.175125 22,100 347 318 -4608
2021-11-28 15:42:55 GMT 50.707306 -3.173490 22,325 347 318 -4608
2021-11-28 15:42:52 GMT 50.704231 -3.172302 22,500 347 319 -4800
2021-11-28 15:42:50 GMT 50.700089 -3.170700 22,725 347 319 -4992
2021-11-28 15:42:48 GMT 50.693619 -3.168106 22,975 347 320 -5056
2021-11-28 15:42:45 GMT 50.689896 -3.166656 23,175 347 320 -5120
2021-11-28 15:42:42 GMT 50.689896 -3.166656 23,325 347 320 -5120
2021-11-28 15:42:40 GMT 50.685753 -3.165054 23,575 346 321 -5120
2021-11-28 15:42:38 GMT 50.680119 -3.162842 23,750 347 322 -4928
2021-11-28 15:42:36 GMT 50.680119 -3.162842 23,900 347 322 -4992
2021-11-28 15:42:33 GMT 50.675789 -3.161163 24,150 347 323 -4928
2021-11-28 15:42:31 GMT 50.673660 -3.160351 24,450 347 323 -4992
2021-11-28 15:42:28 GMT 50.664009 -3.156565 24,625 347 324 -5056
2021-11-28 15:42:25 GMT 50.664009 -3.156565 24,975 347 325 -4992
2021-11-28 15:42:22 GMT 50.660240 -3.155080 25,050 346 325 -4992
2021-11-28 15:42:20 GMT 50.657089 -3.153871 25,225 347 326 -4992
2021-11-28 15:42:18 GMT 50.654514 -3.152853 25,500 347 327 -4928
2021-11-28 15:42:15 GMT 50.649952 -3.151072 25,700 347 328 -4864
2021-11-28 15:42:12 GMT 50.645462 -3.149318 25,875 347 329 -4800
2021-11-28 15:42:10 GMT 50.640083 -3.147212 26,125 347 331 -4608
2021-11-28 15:42:06 GMT 50.636684 -3.145950 26,325 347 332 -4480
2021-11-28 15:42:04 GMT 50.633148 -3.144547 26,525 347 339 -4544
2021-11-28 15:42:02 GMT 50.627747 -3.142524 26,725 347 335 -4672
2021-11-28 15:42:00 GMT 50.627747 -3.142524 26,875 347 335 -4672
2021-11-28 15:41:58 GMT 50.625366 -3.141584 26,950 347 335 -4928
2021-11-28 15:41:56 GMT 50.621510 -3.140086 27,125 347 336 -5184
2021-11-28 15:41:54 GMT 50.618622 -3.138972 27,325 347 337 -5120
2021-11-28 15:41:52 GMT 50.614571 -3.137413 27,500 347 337 -4992
2021-11-28 15:41:49 GMT 50.612228 -3.136524 27,625 347 338 -4928
2021-11-28 15:41:47 GMT 50.607731 -3.134815 27,875 347 340 -4480
2021-11-28 15:41:45 GMT 50.603989 -3.133344 28,100 347 342 -4288
2021-11-28 15:41:42 GMT 50.601059 -3.132260 28,600 347 342 -4480
2021-11-28 15:41:40 GMT 50.596161 -3.130308 28,475 347 341 -4864
2021-11-28 15:41:37 GMT 50.592316 -3.128863 28,650 347 340 -4992
2021-11-28 15:41:35 GMT 50.589340 -3.127763 29,000 347 337 -5056
2021-11-28 15:41:32 GMT 50.585770 -3.126333 29,000 347 337 -5056
2021-11-28 15:41:30 GMT 50.582031 -3.124942 29,175 347 337 -5120
2021-11-28 15:41:28 GMT 50.573467 -3.121602 29,550 347 335 -5056
2021-11-28 15:41:25 GMT 50.573467 -3.121602 29,725 347 334 -4672
2021-11-28 15:41:22 GMT 50.570580 -3.120488 29,875 347 333 -4480
2021-11-28 15:41:20 GMT 50.566578 -3.118929 29,975 347 331 -4672
2021-11-28 15:41:18 GMT 50.561222 -3.116851 30,275 347 330 -4800
2021-11-28 15:41:16 GMT 50.561222 -3.116851 30,275 347 330 -4928
2021-11-28 15:41:14 GMT 50.558350 -3.115708 30,425 346 328 -4992
2021-11-28 15:41:12 GMT 50.555237 -3.114479 30,625 346 326 -4864
2021-11-28 15:41:10 GMT 50.550610 -3.112620 30,900 346 325 -3968
2021-11-28 15:41:07 GMT 50.548424 -3.111803 31,050 346 324 -3776
2021-11-28 15:41:05 GMT 50.544434 -3.110215 31,150 346 324 -3776
2021-11-28 15:41:03 GMT 50.537018 -3.107252 31,425 346 324 -3840
2021-11-28 15:41:00 GMT 50.537018 -3.107252 31,550 346 323 -3840
2021-11-28 15:40:57 GMT 50.533897 -3.106013 31,575 347 323 -3904
2021-11-28 15:40:55 GMT 50.529800 -3.104454 31,775 347 322 -3904
2021-11-28 15:40:53 GMT 50.528595 -3.103999 31,850 347 322 -3904
2021-11-28 15:40:51 GMT 50.524166 -3.102227 32,575 346 321 -3904
2021-11-28 15:40:48 GMT 50.520081 -3.100674 32,225 346 321 -3904
2021-11-28 15:40:45 GMT 50.515556 -3.098887 32,425 347 320 -3776
2021-11-28 15:40:42 GMT 50.510605 -3.096916 32,650 347 319 -3712
2021-11-28 15:40:39 GMT 50.507782 -3.095843 32,850 347 319 -3840
2021-11-28 15:40:37 GMT 50.504150 -3.094458 32,925 347 318 -3904
2021-11-28 15:40:35 GMT 50.501961 -3.093542 33,025 346 317 -3840
2021-11-28 15:40:32 GMT 50.497055 -3.091639 33,350 347 317 -3840
2021-11-28 15:40:29 GMT 50.493347 -3.090194 33,400 347 316 -3776
2021-11-28 15:40:27 GMT 50.489960 -3.088893 33,525 347 315 -3712
2021-11-28 15:40:24 GMT 50.485840 -3.087303 33,750 347 315 -3648
2021-11-28 15:40:22 GMT 50.483185 -3.086291 33,850 347 314 -3712
2021-11-28 15:40:19 GMT 50.475800 -3.083372 34,150 346 312 -3648
2021-11-28 15:40:17 GMT 50.475800 -3.083372 34,125 346 313 -3648
2021-11-28 15:40:14 GMT 50.472168 -3.081962 34,325 347 311 -3712
2021-11-28 15:40:12 GMT 50.469097 -3.080774 34,475 347 310 -3904
2021-11-28 15:40:10 GMT 50.466110 -3.079569 34,625 347 310 -3840
2021-11-28 15:40:08 GMT 50.461044 -3.077657 34,750 347 308 -3648
2021-11-28 15:40:06 GMT 50.458111 -3.076543 34,925 347 308 -3392
2021-11-28 15:40:04 GMT 50.458111 -3.076543 35,075 347 308 -3200
2021-11-28 15:40:01 GMT 50.453201 -3.074654 35,100 347 307 -3136
2021-11-28 15:39:58 GMT 50.449356 -3.073208 35,225 347 308 -2816
2021-11-28 15:39:56 GMT 50.446701 -3.072197 35,525 347 308 -2432
2021-11-28 15:39:54 GMT 50.443954 -3.071112 35,425 347 308 -2112
2021-11-28 15:39:51 GMT 50.439583 -3.069491 35,525 347 309 -1792
2021-11-28 15:39:48 GMT 50.435303 -3.067860 35,600 347 311 -1472
2021-11-28 15:39:46 GMT 50.431202 -3.066299 35,675 347 313 -1280
2021-11-28 15:39:43 GMT 50.428162 -3.065113 35,725 347 315 -1152
2021-11-28 15:39:40 GMT 50.424500 -3.063668 35,775 347 315 -1024
2021-11-28 15:39:38 GMT 50.422531 -3.062945 35,800 347 316 -1024
2021-11-28 15:39:36 GMT 50.419830 -3.061861 35,825 347 317 -896
2021-11-28 15:39:34 GMT 50.415653 -3.060286 35,950 347 319 -576
2021-11-28 15:39:31 GMT 50.410995 -3.058536 35,925 347 319 -704
2021-11-28 15:39:28 GMT 50.404762 -3.056129 35,950 347 319 -576
2021-11-28 15:39:26 GMT 50.404762 -3.056129 35,975 347 320 -384
2021-11-28 15:39:24 GMT 50.401245 -3.054777 36,000 347 320 -192
2021-11-28 15:39:21 GMT 50.397812 -3.053476 36,000 347 320 -192
2021-11-28 15:39:19 GMT 50.394566 -3.052269 36,000 347 320 -128
2021-11-28 15:39:17 GMT 50.388981 -3.050116 36,000 347 320 0
2021-11-28 15:39:13 GMT 50.386372 -3.049077 36,000 347 320 0
2021-11-28 15:39:10 GMT 50.380787 -3.046924 36,000 347 320 0
2021-11-28 15:39:07 GMT 50.375759 -3.044994 36,000 347 320 0
2021-11-28 15:39:04 GMT 50.372734 -3.043807 36,000 347 321 0
2021-11-28 15:39:01 GMT 50.368195 -3.042056 36,000 347 320 0
2021-11-28 15:38:59 GMT 50.366043 -3.041261 36,000 347 320 0
2021-11-28 15:38:56 GMT 50.361374 -3.039501 36,000 347 321 0
2021-11-28 15:38:54 GMT 50.358444 -3.038370 36,000 347 321 0
2021-11-28 15:38:51 GMT 50.350113 -3.035118 36,000 347 321 0
2021-11-28 15:38:48 GMT 50.350113 -3.035118 36,000 347 321 0
2021-11-28 15:38:46 GMT 50.347092 -3.034034 36,000 347 321 0
2021-11-28 15:38:44 GMT 50.344208 -3.032877 36,000 347 321 0
2021-11-28 15:38:41 GMT 50.339962 -3.031262 36,000 347 321 0
2021-11-28 15:38:39 GMT 50.337215 -3.030222 36,000 347 321 0
2021-11-28 15:38:37 GMT 50.334187 -3.029109 36,000 347 321 0
2021-11-28 15:38:34 GMT 50.328415 -3.026882 36,000 347 321 0
2021-11-28 15:38:31 GMT 50.325623 -3.025794 36,000 347 320 -64
2021-11-28 15:38:29 GMT 50.322689 -3.024655 36,000 347 320 -64
2021-11-28 15:38:25 GMT 50.317566 -3.022758 36,000 347 320 0
2021-11-28 15:38:23 GMT 50.314079 -3.021389 36,000 347 320 0
2021-11-28 15:38:20 GMT 50.309750 -3.019756 36,000 347 320 0
2021-11-28 15:38:18 GMT 50.306946 -3.018638 36,000 347 320 0
2021-11-28 15:38:15 GMT 50.302643 -3.016976 36,000 347 320 0
2021-11-28 15:38:13 GMT 50.296921 -3.014735 36,000 347 319 0
2021-11-28 15:38:11 GMT 50.296921 -3.014735 36,000 347 320 0
2021-11-28 15:38:09 GMT 50.293900 -3.013579 36,000 347 320 0
2021-11-28 15:38:07 GMT 50.291687 -3.012778 36,000 347 320 0
2021-11-28 15:38:05 GMT 50.288242 -3.011442 36,000 347 320 0
2021-11-28 15:38:03 GMT 50.284515 -3.009957 36,000 347 320 0
2021-11-28 15:38:00 GMT 50.281723 -3.008881 36,000 347 320 0
2021-11-28 15:37:57 GMT 50.277348 -3.007210 36,000 347 320 0
2021-11-28 15:37:55 GMT 50.270691 -3.004616 36,000 347 319 64
2021-11-28 15:37:53 GMT 50.270691 -3.004616 36,000 347 319 64
2021-11-28 15:37:51 GMT 50.267212 -3.003243 36,000 347 319 64
2021-11-28 15:37:48 GMT 50.264454 -3.002163 36,000 347 319 64
2021-11-28 15:37:46 GMT 50.256500 -2.999123 36,000 347 319 64
2021-11-28 15:37:43 GMT 50.256500 -2.999123 35,975 347 319 64
2021-11-28 15:37:40 GMT 50.253002 -2.997709 36,000 347 319 64
2021-11-28 15:37:38 GMT 50.249973 -2.996595 35,975 347 320 0
2021-11-28 15:37:35 GMT 50.244808 -2.994591 35,975 347 320 -64
2021-11-28 15:37:33 GMT 50.242584 -2.993702 35,975 347 320 -128
2021-11-28 15:37:31 GMT 50.239639 -2.992587 36,000 347 320 -256
2021-11-28 15:37:29 GMT 50.237137 -2.991606 36,000 347 320 -256
2021-11-28 15:37:27 GMT 50.234116 -2.990450 36,025 347 320 -256
2021-11-28 15:37:25 GMT 50.230682 -2.989149 36,025 347 315 448
2021-11-28 15:37:22 GMT 50.227524 -2.987920 36,050 347 315 448
2021-11-28 15:37:20 GMT 50.224548 -2.986836 36,050 347 315 448
2021-11-28 15:37:18 GMT 50.221207 -2.985535 36,025 347 314 832
2021-11-28 15:37:16 GMT 50.217911 -2.984306 35,975 347 313 1408
2021-11-28 15:37:14 GMT 50.215118 -2.983222 35,925 347 313 1920
2021-11-28 15:37:12 GMT 50.212967 -2.982427 35,875 347 314 2176
2021-11-28 15:37:10 GMT 50.209900 -2.981270 35,775 347 314 2368
2021-11-28 15:37:08 GMT 50.207199 -2.980258 35,675 347 318 2496
2021-11-28 15:37:06 GMT 50.201748 -2.978186 35,475 347 316 2560
2021-11-28 15:37:04 GMT 50.201748 -2.978186 35,550 347 317 2560
2021-11-28 15:37:02 GMT 50.199097 -2.977223 35,500 347 317 2560
2021-11-28 15:37:00 GMT 50.195461 -2.975810 35,350 347 319 2368
2021-11-28 15:36:58 GMT 50.193321 -2.974994 35,225 347 319 2304
2021-11-28 15:36:56 GMT 50.190434 -2.973954 35,225 347 321 1984
2021-11-28 15:36:54 GMT 50.184383 -2.971653 35,100 347 322 1856
2021-11-28 15:36:52 GMT 50.184383 -2.971653 34,975 347 322 1792
2021-11-28 15:36:50 GMT 50.179688 -2.969923 34,975 347 322 1472
2021-11-28 15:36:47 GMT 50.176666 -2.968766 34,950 347 322 1472
2021-11-28 15:36:45 GMT 50.173676 -2.967645 34,850 347 322 1280
2021-11-28 15:36:42 GMT 50.169296 -2.965947 34,825 347 321 1088
2021-11-28 15:36:39 GMT 50.166180 -2.964750 34,800 347 321 1088
2021-11-28 15:36:37 GMT 50.162521 -2.963345 34,725 347 321 1024
2021-11-28 15:36:35 GMT 50.158825 -2.962003 34,675 347 320 960
2021-11-28 15:36:32 GMT 50.156021 -2.960888 34,675 347 320 1024
2021-11-28 15:36:30 GMT 50.147327 -2.957549 34,425 347 319 1280
2021-11-28 15:36:27 GMT 50.147327 -2.957549 34,575 347 319 1152
2021-11-28 15:36:25 GMT 50.145996 -2.957057 34,425 347 319 1344
2021-11-28 15:36:22 GMT 50.140961 -2.955178 34,475 347 319 1280
2021-11-28 15:36:20 GMT 50.137318 -2.953763 34,425 347 319 1280
2021-11-28 15:36:17 GMT 50.133038 -2.952130 34,375 347 319 1344
2021-11-28 15:36:15 GMT 50.131531 -2.951492 34,325 347 319 1344
2021-11-28 15:36:12 GMT 50.125946 -2.949395 34,225 347 319 1216
2021-11-28 15:36:09 GMT 50.121723 -2.947751 34,175 347 319 1280
2021-11-28 15:36:07 GMT 50.113857 -2.944781 34,075 347 319 1152
2021-11-28 15:36:02 GMT 50.108780 -2.942818 34,050 347 318 1088
2021-11-28 15:36:00 GMT 50.108780 -2.942818 34,025 347 318 1088
2021-11-28 15:35:57 GMT 50.105072 -2.941373 33,975 347 318 1088
2021-11-28 15:35:55 GMT 50.102592 -2.940476 33,775 347 318 1088
2021-11-28 15:35:52 GMT 50.098030 -2.938694 33,825 347 320 1792
2021-11-28 15:35:50 GMT 50.095093 -2.937614 33,825 347 317 1216
2021-11-28 15:35:47 GMT 50.091324 -2.936170 33,725 347 317 1408
2021-11-28 15:35:45 GMT 50.087814 -2.934867 33,700 347 317 1472
2021-11-28 15:35:42 GMT 50.083645 -2.933275 33,650 347 317 1600
2021-11-28 15:35:40 GMT 50.080856 -2.932193 33,600 347 317 1664
2021-11-28 15:35:37 GMT 50.072193 -2.928896 33,475 347 319 1792
2021-11-28 15:35:34 GMT 50.072193 -2.928896 33,425 347 319 1792
2021-11-28 15:35:31 GMT 50.067856 -2.927278 33,275 347 320 1728
2021-11-28 15:35:28 GMT 50.063625 -2.925629 33,200 347 320 1664
2021-11-28 15:35:25 GMT 50.059017 -2.923922 33,150 347 320 1600
2021-11-28 15:35:22 GMT 50.054764 -2.922291 33,075 347 321 1536
2021-11-28 15:35:20 GMT 50.052063 -2.921279 33,025 347 321 1472
2021-11-28 15:35:17 GMT 50.046215 -2.919097 32,925 347 321 1536
2021-11-28 15:35:14 GMT 50.043137 -2.917882 32,875 347 321 1536
2021-11-28 15:35:11 GMT 50.039520 -2.916509 32,800 347 321 1600
2021-11-28 15:35:09 GMT 50.036179 -2.915280 32,700 347 322 1600
2021-11-28 15:35:06 GMT 50.032669 -2.913975 32,575 347 323 1664
2021-11-28 15:35:04 GMT 50.029037 -2.912565 32,550 347 322 1664
2021-11-28 15:35:02 GMT 50.025871 -2.911377 32,550 347 322 1600
2021-11-28 15:34:59 GMT 50.023125 -2.910338 32,400 347 323 1728
2021-11-28 15:34:57 GMT 50.015671 -2.907546 32,225 347 324 1344
2021-11-28 15:34:54 GMT 50.015671 -2.907546 32,325 347 323 1664
2021-11-28 15:34:52 GMT 50.011185 -2.905812 32,225 347 324 1344
2021-11-28 15:34:49 GMT 50.007626 -2.904473 32,200 347 324 1536
2021-11-28 15:34:47 GMT 50.002968 -2.902766 32,125 347 324 1344
2021-11-28 15:34:44 GMT 49.999969 -2.901619 32,125 347 324 1344
2021-11-28 15:34:41 GMT 49.996124 -2.900168 32,050 347 324 1280
2021-11-28 15:34:38 GMT 49.989258 -2.897572 31,950 347 323 1152
2021-11-28 15:34:36 GMT 49.989258 -2.897572 31,900 347 323 1152
2021-11-28 15:34:34 GMT 49.984814 -2.895862 31,875 347 322 1216
2021-11-28 15:34:31 GMT 49.981705 -2.894681 31,800 347 322 1216
2021-11-28 15:34:29 GMT 49.978638 -2.893524 31,725 347 322 1216
2021-11-28 15:34:26 GMT 49.973602 -2.891645 31,725 347 322 1216
2021-11-28 15:34:24 GMT 49.971500 -2.890815 31,675 347 322 1216
2021-11-28 15:34:21 GMT 49.967239 -2.889187 31,650 347 322 1152
2021-11-28 15:34:18 GMT 49.963486 -2.887814 31,450 347 321 1152
2021-11-28 15:34:16 GMT 49.959320 -2.886224 31,525 347 321 1152
2021-11-28 15:34:14 GMT 49.957169 -2.885357 31,500 347 320 1152
2021-11-28 15:34:11 GMT 49.949760 -2.882575 31,425 347 320 1152
2021-11-28 15:34:09 GMT 49.949760 -2.882575 31,400 347 319 1216
2021-11-28 15:34:06 GMT 49.945618 -2.881016 31,025 347 318 1216
2021-11-28 15:34:04 GMT 49.941971 -2.879647 31,275 347 318 1280
2021-11-28 15:34:01 GMT 49.935749 -2.877304 31,150 347 317 1280
2021-11-28 15:33:59 GMT 49.935749 -2.877304 31,175 347 317 1280
2021-11-28 15:33:56 GMT 49.930801 -2.875455 31,125 347 317 1280
2021-11-28 15:33:54 GMT 49.927040 -2.874038 31,050 347 317 1280
2021-11-28 15:33:51 GMT 49.924202 -2.872925 30,975 347 317 1280
2021-11-28 15:33:49 GMT 49.919922 -2.871366 30,950 347 317 1280
2021-11-28 15:33:46 GMT 49.913452 -2.868877 30,850 347 316 1216
2021-11-28 15:33:44 GMT 49.913452 -2.868877 30,850 347 316 1216
2021-11-28 15:33:41 GMT 49.909790 -2.867504 30,775 347 315 1216
2021-11-28 15:33:39 GMT 49.906265 -2.866131 30,750 347 313 1280
2021-11-28 15:33:37 GMT 49.903347 -2.865056 30,700 347 313 1216
2021-11-28 15:33:35 GMT 49.901810 -2.864462 30,700 347 313 1280
2021-11-28 15:33:33 GMT 49.899216 -2.863529 30,625 347 313 1280
2021-11-28 15:33:31 GMT 49.895203 -2.862013 30,400 347 312 1280
2021-11-28 15:33:29 GMT 49.890198 -2.860132 30,525 347 312 1344
2021-11-28 15:33:27 GMT 49.890198 -2.860132 30,525 347 312 1344
2021-11-28 15:33:24 GMT 49.881607 -2.856891 30,350 347 311 1408
2021-11-28 15:33:21 GMT 49.881607 -2.856891 30,300 347 311 1472
2021-11-28 15:33:18 GMT 49.877930 -2.855480 30,325 347 311 1472
2021-11-28 15:33:15 GMT 49.872902 -2.853624 30,250 347 310 1472
2021-11-28 15:33:13 GMT 49.870949 -2.852882 30,175 347 310 1536
2021-11-28 15:33:10 GMT 49.866852 -2.851314 30,100 347 310 1536
2021-11-28 15:33:08 GMT 49.864197 -2.850302 30,075 347 310 1536
2021-11-28 15:33:06 GMT 49.860443 -2.848928 30,000 347 309 1600
2021-11-28 15:33:03 GMT 49.856964 -2.847627 29,875 347 309 1600
2021-11-28 15:33:00 GMT 49.853024 -2.846127 29,850 347 309 1600
2021-11-28 15:32:58 GMT 49.850231 -2.845088 29,800 347 308 1600
2021-11-28 15:32:56 GMT 49.846115 -2.843507 29,750 347 308 1600
2021-11-28 15:32:53 GMT 49.843094 -2.842351 29,600 347 308 1664
2021-11-28 15:32:50 GMT 49.839066 -2.840833 29,525 347 308 1664
2021-11-28 15:32:48 GMT 49.832565 -2.838376 29,475 347 308 1728
2021-11-28 15:32:46 GMT 49.829773 -2.837364 29,375 347 308 1920
2021-11-28 15:32:42 GMT 49.826954 -2.836254 29,225 347 308 1984
2021-11-28 15:32:39 GMT 49.824207 -2.835215 29,225 347 308 1984
2021-11-28 15:32:37 GMT 49.819839 -2.833533 29,150 347 308 1984
2021-11-28 15:32:35 GMT 49.818390 -2.832988 29,075 347 308 1728
2021-11-28 15:32:33 GMT 49.813843 -2.831292 28,975 347 308 1856
2021-11-28 15:32:30 GMT 49.808102 -2.829128 28,925 347 308 1856
2021-11-28 15:32:28 GMT 49.808102 -2.829128 28,850 347 308 1792
2021-11-28 15:32:26 GMT 49.805420 -2.828112 28,825 347 308 1792
2021-11-28 15:32:23 GMT 49.800884 -2.826381 28,700 347 308 1728
2021-11-28 15:32:20 GMT 49.796604 -2.824748 28,650 347 308 1664
2021-11-28 15:32:18 GMT 49.793858 -2.823709 28,575 347 308 1664
2021-11-28 15:32:16 GMT 49.791138 -2.822691 28,550 347 307 1600
2021-11-28 15:32:13 GMT 49.787060 -2.821185 28,450 347 307 1536
2021-11-28 15:32:10 GMT 49.782776 -2.819552 28,300 347 306 1536
2021-11-28 15:32:08 GMT 49.779472 -2.818290 28,300 347 306 1536
2021-11-28 15:32:05 GMT 49.776028 -2.817028 28,250 347 305 1600
2021-11-28 15:32:03 GMT 49.773926 -2.816258 28,200 347 305 1600
2021-11-28 15:32:00 GMT 49.769043 -2.814430 28,075 347 304 1600
2021-11-28 15:31:58 GMT 49.767059 -2.813656 28,075 347 304 1600
2021-11-28 15:31:55 GMT 49.759594 -2.810867 27,975 347 303 1600
2021-11-28 15:31:53 GMT 49.759594 -2.810867 27,850 347 303 1600
2021-11-28 15:31:50 GMT 49.752937 -2.808343 27,825 347 303 1600
2021-11-28 15:31:48 GMT 49.752937 -2.808343 27,775 347 302 1664
2021-11-28 15:31:46 GMT 49.750050 -2.807304 27,750 347 302 1664
2021-11-28 15:31:43 GMT 49.746513 -2.805968 27,625 347 302 1728
2021-11-28 15:31:41 GMT 49.744370 -2.805151 27,425 347 301 1792
2021-11-28 15:31:38 GMT 49.738312 -2.802887 27,425 347 301 1792
2021-11-28 15:31:35 GMT 49.735714 -2.801885 27,425 347 301 1792
2021-11-28 15:31:33 GMT 49.732174 -2.800549 27,350 347 301 1792
2021-11-28 15:31:31 GMT 49.730072 -2.799779 27,250 347 300 1856
2021-11-28 15:31:28 GMT 49.726044 -2.798261 27,225 347 300 1856
2021-11-28 15:31:26 GMT 49.723892 -2.797466 27,125 347 300 1856
2021-11-28 15:31:24 GMT 49.720779 -2.796310 27,125 347 300 1856
2021-11-28 15:31:22 GMT 49.713974 -2.793719 27,000 347 300 1792
2021-11-28 15:31:19 GMT 49.713974 -2.793719 26,950 347 299 1792
2021-11-28 15:31:17 GMT 49.711273 -2.792680 26,875 347 299 1792
2021-11-28 15:31:15 GMT 49.708649 -2.791756 26,825 347 299 1728
2021-11-28 15:31:12 GMT 49.704620 -2.790166 26,575 347 298 1664
2021-11-28 15:31:09 GMT 49.700317 -2.788576 26,600 347 298 1664
2021-11-28 15:31:06 GMT 49.695511 -2.786769 26,550 347 297 1664
2021-11-28 15:31:04 GMT 49.693024 -2.785851 26,500 347 297 1664
2021-11-28 15:31:02 GMT 49.691021 -2.785108 26,450 347 297 1600
2021-11-28 15:30:59 GMT 49.687019 -2.783624 26,175 347 296 1600
2021-11-28 15:30:56 GMT 49.682922 -2.782065 26,275 347 296 1600
2021-11-28 15:30:54 GMT 49.677795 -2.780192 26,175 347 295 1600
2021-11-28 15:30:52 GMT 49.673241 -2.778502 26,150 347 293 1600
2021-11-28 15:30:49 GMT 49.673241 -2.778502 26,100 347 293 1600
2021-11-28 15:30:47 GMT 49.671238 -2.777759 26,050 347 293 1600
2021-11-28 15:30:45 GMT 49.668350 -2.776720 26,000 347 293 1600
2021-11-28 15:30:42 GMT 49.664536 -2.775310 25,925 347 291 1664
2021-11-28 15:30:39 GMT 49.660812 -2.773903 25,800 347 291 1664
2021-11-28 15:30:37 GMT 49.656387 -2.772341 25,700 347 290 1728
2021-11-28 15:30:34 GMT 49.653641 -2.771376 25,675 347 290 1792
2021-11-28 15:30:32 GMT 49.650467 -2.770217 24,875 348 289 2176
2021-11-28 15:30:29 GMT 49.647079 -2.768988 25,325 348 289 2112
2021-11-28 15:30:27 GMT 49.644974 -2.768266 25,475 348 289 2048
2021-11-28 15:30:24 GMT 49.640747 -2.766699 25,325 348 289 2112
2021-11-28 15:30:21 GMT 49.638000 -2.765734 25,275 348 289 2176
2021-11-28 15:30:19 GMT 49.634033 -2.764363 25,175 348 289 2176
2021-11-28 15:30:16 GMT 49.631390 -2.763433 25,050 348 289 2176
2021-11-28 15:30:14 GMT 49.627899 -2.762194 25,025 348 289 2176
2021-11-28 15:30:11 GMT 49.624557 -2.760965 24,825 348 289 2176
2021-11-28 15:30:07 GMT 49.618729 -2.758979 24,600 348 288 1984
2021-11-28 15:30:05 GMT 49.616261 -2.758088 24,700 348 289 2048
2021-11-28 15:30:02 GMT 49.612152 -2.756701 24,600 348 288 1984
2021-11-28 15:29:58 GMT 49.607758 -2.755183 24,475 348 288 1920
2021-11-28 15:29:56 GMT 49.603783 -2.753783 24,325 348 287 1856
2021-11-28 15:29:52 GMT 49.599197 -2.752147 24,250 347 286 1856
2021-11-28 15:29:50 GMT 49.596634 -2.751208 24,125 347 286 1856
2021-11-28 15:29:47 GMT 49.592194 -2.749626 24,100 347 285 1856
2021-11-28 15:29:45 GMT 49.589119 -2.748512 24,025 347 285 1856
2021-11-28 15:29:42 GMT 49.585831 -2.747233 23,950 346 284 1856
2021-11-28 15:29:40 GMT 49.584141 -2.746582 23,750 344 284 1856
2021-11-28 15:29:37 GMT 49.580090 -2.744875 23,800 341 284 1856
2021-11-28 15:29:34 GMT 49.576969 -2.743242 23,750 341 284 1856
2021-11-28 15:29:32 GMT 49.574341 -2.741667 23,625 335 286 1920
2021-11-28 15:29:30 GMT 49.571152 -2.739456 23,575 334 287 1920
2021-11-28 15:29:28 GMT 49.569149 -2.737823 23,525 332 287 1984
2021-11-28 15:29:25 GMT 49.566650 -2.735596 23,450 329 288 2112
2021-11-28 15:29:23 GMT 49.564445 -2.733517 23,375 329 289 2112
2021-11-28 15:29:21 GMT 49.560955 -2.730103 23,275 328 289 2176
2021-11-28 15:29:19 GMT 49.559837 -2.728989 23,225 328 288 2176
2021-11-28 15:29:17 GMT 49.554344 -2.723496 23,075 328 288 2240
2021-11-28 15:29:15 GMT 49.554344 -2.723496 23,050 328 288 2240
2021-11-28 15:29:13 GMT 49.552277 -2.721429 22,975 328 287 2304
2021-11-28 15:29:11 GMT 49.549850 -2.719044 22,900 328 287 2368
2021-11-28 15:29:08 GMT 49.546432 -2.715627 22,475 328 286 2368
2021-11-28 15:29:04 GMT 49.542103 -2.711322 22,525 328 287 2368
2021-11-28 15:29:01 GMT 49.533554 -2.702854 22,350 328 286 2368
2021-11-28 15:28:56 GMT 49.529800 -2.699167 22,250 328 286 2304
2021-11-28 15:28:53 GMT 49.529800 -2.699167 22,175 328 285 2176
2021-11-28 15:28:50 GMT 49.527466 -2.696854 22,000 328 285 2048
2021-11-28 15:28:48 GMT 49.523346 -2.692807 21,875 328 284 2048
2021-11-28 15:28:45 GMT 49.521759 -2.691205 21,925 328 282 2048
2021-11-28 15:28:43 GMT 49.519756 -2.689275 21,775 328 283 2048
2021-11-28 15:28:41 GMT 49.516525 -2.686013 21,700 328 281 2112
2021-11-28 15:28:38 GMT 49.513138 -2.682688 21,650 328 281 2112
2021-11-28 15:28:35 GMT 49.509235 -2.678808 21,475 328 280 2112
2021-11-28 15:28:32 GMT 49.506721 -2.676359 21,400 328 279 2176
2021-11-28 15:28:30 GMT 49.504673 -2.674354 21,375 328 279 2176
2021-11-28 15:28:28 GMT 49.503139 -2.672795 21,275 328 277 2176
2021-11-28 15:28:26 GMT 49.498215 -2.667943 21,200 328 277 2176
2021-11-28 15:28:24 GMT 49.498215 -2.667943 21,150 328 277 2176
2021-11-28 15:28:21 GMT 49.494781 -2.664546 21,050 328 277 2176
2021-11-28 15:28:19 GMT 49.492569 -2.662403 20,975 328 275 2112
2021-11-28 15:28:17 GMT 49.490986 -2.660844 20,950 328 275 2112
2021-11-28 15:28:15 GMT 49.489105 -2.658981 20,775 328 274 2112
2021-11-28 15:28:12 GMT 49.484657 -2.654609 20,700 328 273 2176
2021-11-28 15:28:10 GMT 49.482605 -2.652548 20,625 328 272 2240
2021-11-28 15:28:07 GMT 49.480270 -2.650235 20,550 328 272 2304
2021-11-28 15:28:05 GMT 49.478001 -2.648002 20,475 328 271 2368
2021-11-28 15:28:02 GMT 49.474365 -2.644380 20,325 328 270 2432
2021-11-28 15:28:00 GMT 49.472809 -2.642862 20,225 328 269 2560
2021-11-28 15:27:57 GMT 49.469711 -2.639762 20,150 328 269 2624
2021-11-28 15:27:55 GMT 49.465431 -2.635531 19,950 328 269 2624
2021-11-28 15:27:51 GMT 49.462917 -2.633081 19,850 328 269 2624
2021-11-28 15:27:48 GMT 49.460312 -2.630483 19,750 328 268 2624
2021-11-28 15:27:46 GMT 49.457657 -2.627828 19,625 328 267 2560
2021-11-28 15:27:44 GMT 49.456009 -2.626238 19,575 328 267 2496
2021-11-28 15:27:41 GMT 49.452988 -2.623203 19,475 328 267 2496
2021-11-28 15:27:39 GMT 49.451340 -2.621613 19,375 328 266 2432
2021-11-28 15:27:37 GMT 49.448902 -2.619200 19,300 328 265 2368
2021-11-28 15:27:35 GMT 49.446762 -2.617059 19,125 328 265 2368
2021-11-28 15:27:33 GMT 49.444759 -2.615117 19,125 327 262 2688
2021-11-28 15:27:31 GMT 49.442780 -2.613084 19,025 328 263 2496
2021-11-28 15:27:29 GMT 49.440666 -2.611034 18,975 328 263 2496
2021-11-28 15:27:27 GMT 49.438522 -2.608882 18,875 328 263 2560
2021-11-28 15:27:25 GMT 49.436382 -2.606729 18,775 327 262 2944
2021-11-28 15:27:23 GMT 49.433075 -2.603471 18,600 327 262 2944
2021-11-28 15:27:20 GMT 49.428314 -2.598700 18,475 327 262 3008
2021-11-28 15:27:17 GMT 49.425117 -2.595520 18,375 327 262 3136
2021-11-28 15:27:14 GMT 49.425117 -2.595520 18,250 327 262 3072
2021-11-28 15:27:10 GMT 49.421494 -2.591928 18,075 327 262 3456
2021-11-28 15:27:07 GMT 49.418598 -2.589087 17,875 327 262 3456
2021-11-28 15:27:05 GMT 49.415714 -2.586268 17,450 328 264 3648
2021-11-28 15:27:02 GMT 49.412521 -2.583055 17,525 328 265 3584
2021-11-28 15:27:00 GMT 49.411377 -2.581928 17,075 328 266 3136
2021-11-28 15:26:57 GMT 49.407669 -2.578266 17,025 328 266 3136
2021-11-28 15:26:53 GMT 49.404053 -2.574674 17,075 328 266 3072
2021-11-28 15:26:50 GMT 49.400299 -2.571012 16,650 328 266 2880
2021-11-28 15:26:46 GMT 49.397369 -2.568054 16,650 328 266 2752
2021-11-28 15:26:44 GMT 49.394855 -2.565669 16,525 328 265 2624
2021-11-28 15:26:42 GMT 49.392242 -2.563054 16,525 328 263 2368
2021-11-28 15:26:39 GMT 49.389450 -2.560307 16,350 328 264 2432
2021-11-28 15:26:36 GMT 49.386433 -2.557357 16,275 328 262 2240
2021-11-28 15:26:33 GMT 49.383499 -2.554394 16,225 328 260 2240
2021-11-28 15:26:30 GMT 49.380478 -2.551504 16,100 328 259 2432
2021-11-28 15:26:28 GMT 49.378330 -2.549334 16,000 328 258 2624
2021-11-28 15:26:26 GMT 49.376358 -2.547420 15,950 328 258 2752
2021-11-28 15:26:24 GMT 49.373566 -2.544603 15,800 328 257 3072
2021-11-28 15:26:19 GMT 49.369720 -2.540805 15,600 327 256 3392
2021-11-28 15:26:16 GMT 49.366699 -2.537842 15,425 327 256 3584
2021-11-28 15:26:13 GMT 49.363632 -2.534743 15,225 328 257 3904
2021-11-28 15:26:11 GMT 49.361572 -2.532710 14,950 327 257 4160
2021-11-28 15:26:09 GMT 49.358967 -2.530108 14,800 327 258 4288
2021-11-28 15:26:06 GMT 49.356216 -2.527419 14,725 327 260 4288
2021-11-28 15:26:03 GMT 49.353104 -2.524250 14,500 328 261 4416
2021-11-28 15:25:59 GMT 49.348866 -2.520061 13,850 328 264 4736
2021-11-28 15:25:56 GMT 49.346024 -2.517242 13,975 328 264 4736
2021-11-28 15:25:54 GMT 49.343555 -2.514785 13,775 327 265 4928
2021-11-28 15:25:51 GMT 49.341522 -2.512770 13,600 328 268 5120
2021-11-28 15:25:49 GMT 49.339462 -2.510728 13,250 328 272 5184
2021-11-28 15:25:46 GMT 49.335690 -2.507051 13,125 327 273 5056
2021-11-28 15:25:42 GMT 49.332047 -2.503404 12,525 328 277 4608
2021-11-28 15:25:39 GMT 49.328846 -2.500257 12,475 328 280 3648
2021-11-28 15:25:36 GMT 49.324936 -2.496426 12,375 328 280 3904
2021-11-28 15:25:32 GMT 49.320099 -2.491643 12,075 328 281 3264
2021-11-28 15:25:29 GMT 49.317902 -2.489460 11,700 328 280 3136
2021-11-28 15:25:26 GMT 49.313644 -2.485375 11,800 328 279 2752
2021-11-28 15:25:22 GMT 49.309296 -2.481079 11,675 328 275 2176
2021-11-28 15:25:19 GMT 49.307053 -2.478896 11,350 328 270 1792
2021-11-28 15:25:16 GMT 49.302589 -2.474598 11,425 328 270 1792
2021-11-28 15:25:09 GMT 49.295841 -2.467949 11,175 328 262 2240
2021-11-28 15:25:06 GMT 49.292725 -2.464881 11,100 328 261 2368
2021-11-28 15:25:00 GMT 49.282478 -2.454794 10,725 328 255 3008
2021-11-28 15:24:56 GMT 49.282478 -2.454794 10,600 328 254 3328
2021-11-28 15:24:54 GMT 49.281326 -2.453684 10,550 328 253 3392
2021-11-28 15:24:52 GMT 49.278801 -2.451252 10,325 328 252 3776
2021-11-28 15:24:49 GMT 49.275833 -2.448331 10,225 328 252 3904
2021-11-28 15:24:45 GMT 49.271805 -2.444317 9,925 328 254 4416
2021-11-28 15:24:39 GMT 49.266048 -2.438676 9,500 328 254 4416
2021-11-28 15:24:35 GMT 49.262089 -2.434773 9,225 328 255 4224
2021-11-28 15:24:29 GMT 49.255898 -2.428774 8,800 328 256 3904
2021-11-28 15:24:25 GMT 49.252594 -2.425521 8,350 328 255 3456
2021-11-28 15:24:18 GMT 49.245575 -2.418753 8,200 328 253 3136
2021-11-28 15:24:14 GMT 49.241180 -2.414527 7,975 328 251 3008
2021-11-28 15:24:09 GMT 49.235462 -2.409042 7,675 328 246 3520
2021-11-28 15:24:04 GMT 49.231934 -2.405654 7,450 328 245 3776
2021-11-28 15:23:58 GMT 49.225967 -2.399862 7,025 327 245 4096
2021-11-28 15:23:54 GMT 49.221954 -2.395794 6,750 325 246 3840
2021-11-28 15:23:45 GMT 49.214539 -2.385583 6,125 309 246 4096
2021-11-28 15:23:38 GMT 49.209824 -2.374596 5,675 297 249 3712
2021-11-28 15:23:34 GMT 49.208042 -2.368349 5,475 292 251 3776
2021-11-28 15:23:27 GMT 49.205437 -2.356423 5,000 287 251 3584
2021-11-28 15:23:24 GMT 49.204514 -2.351356 4,825 286 250 3392
2021-11-28 15:23:18 GMT 49.202690 -2.340377 4,475 284 246 2816
2021-11-28 15:23:14 GMT 49.201805 -2.334595 4,350 282 240 2496
2021-11-28 15:23:10 GMT 49.200943 -2.328327 4,125 281 239 2432
2021-11-28 15:23:07 GMT 49.200211 -2.322482 4,025 280 237 2368
2021-11-28 15:23:03 GMT 49.199615 -2.316814 3,900 278 231 2304
2021-11-28 15:22:55 GMT 49.198826 -2.302864 3,550 270 223 2240
2021-11-28 15:22:53 GMT 49.198826 -2.300335 3,500 269 222 2112
2021-11-28 15:22:45 GMT 49.199524 -2.287692 3,225 263 209 1920
2021-11-28 15:22:42 GMT 49.199848 -2.284000 3,150 263 208 1920
2021-11-28 15:22:36 GMT 49.200596 -2.275832 3,000 263 197 1536
2021-11-28 15:22:33 GMT 49.201015 -2.270990 2,900 263 189 1728
2021-11-28 15:22:26 GMT 49.201851 -2.261593 2,575 263 176 1856
2021-11-28 15:22:23 GMT 49.202133 -2.258324 2,600 263 173 1792
2021-11-28 15:22:14 GMT 49.203110 -2.247861 2,350 262 164 1728
2021-11-28 15:22:11 GMT 49.203415 -2.244239 2,250 263 158 1728
2021-11-28 15:22:06 GMT 49.203995 -2.238392 2,100 263 153 2112
2021-11-28 15:22:03 GMT 49.204178 -2.235862 2,000 262 150 2304
2021-11-28 15:22:02 GMT 49.204285 -2.234802 1,950 262 149 2368
2021-11-28 15:22:01 GMT 49.204411 -2.233694 1,925 262 148 2368
2021-11-28 15:21:59 GMT 49.204651 -2.231140 1,825 263 144 2560
2021-11-28 15:21:55 GMT 49.205250 -2.224370 1,525 262 142 2816
2021-11-28 15:21:52 GMT 49.205250 -2.224370 1,500 262 142 2880
2021-11-28 15:21:50 GMT 49.205391 -2.222708 1,450 262 142 2816
2021-11-28 15:21:49 GMT 49.205521 -2.221633 1,375 262 142 2752
2021-11-28 15:21:46 GMT 49.205856 -2.218010 950 262 141 2752
2021-11-28 15:21:41 GMT 49.206272 -2.213384 950 262 141 2944
2021-11-28 15:21:39 GMT 49.206413 -2.211721 875 262 142 2752
2021-11-28 15:21:38 GMT 49.206554 -2.210276 800 262 142 2624
2021-11-28 15:21:35 GMT 49.206787 -2.207818 700 262 143 2496
2021-11-28 15:17:20 GMT 49.206970 -2.195224 0 78 12

Making use of Plane Finder data

You are free to use the raw flight data, aircraft information and images provided in this report for your own purposes provided the data is correctly attributed to Plane Finder. We ask that you please credit Plane Finder and link to planefinder.net in close proximity to the content.

Optionally one of the following logos (no smaller then 150x24px) can be used and must link to planefinder.net

Embedding the Plane Finder map

You are welcome to embed the Plane Finder playback map on your website to offer visitors a more interactive experience. We suggest using the following HTML code:

<iframe src="//planefinder.net/data/report/U29816-G-EZUK-7700-squawk-2021-11-28/map" width="800" height="600" seamless="seamless"></iframe>

Where our data comes from

Plane Finder has a global network of data feeds and antenna radars that receive data broadcast directly from aircraft. The primary technologies used are ADS-B and MLAT. We also show feeds from the FAA and a FLARM glider feed.

Click here to find out more about the Plane Finder network.

How we collect our data